<?xml version="1.0" encoding="UTF-8" standalone="no" ?>
<gpx xmlns="http://www.topografix.com/GPX/1/1" xmlns:xsi="http://www.w3.org/2001/XMLSchema-instance" xsi:schemaLocation="http://www.topografix.com/GPX/1/1 http://www.topografix.com/GPX/1/1/gpx.xsd" version="1.1" creator="VisuGPX - https://www.visugpx.com">
  <metadata>
    <name>L ESTROPE PAR PEONE</name>
  </metadata>
  <trk>
    <name><![CDATA[2018-09-15 12:45:04 Jour]]></name>
    <trkseg>
      <trkpt lat="44.13465" lon="6.91046">
        <ele>1362.75</ele>
        <time>2018-09-15T10:45:04Z</time>
      </trkpt>
      <trkpt lat="44.13484" lon="6.91045">
        <ele>1361.84</ele>
        <time>2018-09-15T10:45:44Z</time>
      </trkpt>
      <trkpt lat="44.13499" lon="6.9105">
        <ele>1361.09</ele>
        <time>2018-09-15T10:45:56Z</time>
      </trkpt>
      <trkpt lat="44.13511" lon="6.91066">
        <ele>1361.02</ele>
        <time>2018-09-15T10:46:08Z</time>
      </trkpt>
      <trkpt lat="44.13515" lon="6.9111">
        <ele>1360.57</ele>
        <time>2018-09-15T10:46:31Z</time>
      </trkpt>
      <trkpt lat="44.1352" lon="6.91124">
        <ele>1359.97</ele>
        <time>2018-09-15T10:46:40Z</time>
      </trkpt>
      <trkpt lat="44.13534" lon="6.91135">
        <ele>1361.13</ele>
        <time>2018-09-15T10:46:55Z</time>
      </trkpt>
      <trkpt lat="44.1355" lon="6.91138">
        <ele>1362.99</ele>
        <time>2018-09-15T10:47:09Z</time>
      </trkpt>
      <trkpt lat="44.13569" lon="6.91137">
        <ele>1364.74</ele>
        <time>2018-09-15T10:47:22Z</time>
      </trkpt>
      <trkpt lat="44.13586" lon="6.91147">
        <ele>1366.38</ele>
        <time>2018-09-15T10:47:37Z</time>
      </trkpt>
      <trkpt lat="44.13598" lon="6.91147">
        <ele>1367.59</ele>
        <time>2018-09-15T10:47:53Z</time>
      </trkpt>
      <trkpt lat="44.13608" lon="6.91148">
        <ele>1368.65</ele>
        <time>2018-09-15T10:48:21Z</time>
      </trkpt>
      <trkpt lat="44.13627" lon="6.91155">
        <ele>1369.91</ele>
        <time>2018-09-15T10:48:49Z</time>
      </trkpt>
      <trkpt lat="44.13636" lon="6.91161">
        <ele>1370.58</ele>
        <time>2018-09-15T10:48:58Z</time>
      </trkpt>
      <trkpt lat="44.13653" lon="6.91174">
        <ele>1372.05</ele>
        <time>2018-09-15T10:49:44Z</time>
      </trkpt>
      <trkpt lat="44.13667" lon="6.91185">
        <ele>1373.44</ele>
        <time>2018-09-15T10:49:57Z</time>
      </trkpt>
      <trkpt lat="44.1368" lon="6.91195">
        <ele>1374.85</ele>
        <time>2018-09-15T10:50:09Z</time>
      </trkpt>
      <trkpt lat="44.13693" lon="6.91208">
        <ele>1376.29</ele>
        <time>2018-09-15T10:50:20Z</time>
      </trkpt>
      <trkpt lat="44.13699" lon="6.91224">
        <ele>1377.34</ele>
        <time>2018-09-15T10:50:29Z</time>
      </trkpt>
      <trkpt lat="44.13701" lon="6.91238">
        <ele>1378.11</ele>
        <time>2018-09-15T10:50:37Z</time>
      </trkpt>
      <trkpt lat="44.13712" lon="6.91256">
        <ele>1379.3</ele>
        <time>2018-09-15T10:50:48Z</time>
      </trkpt>
      <trkpt lat="44.13718" lon="6.91271">
        <ele>1380.93</ele>
        <time>2018-09-15T10:51:01Z</time>
      </trkpt>
      <trkpt lat="44.1371" lon="6.91282">
        <ele>1380.67</ele>
        <time>2018-09-15T10:51:15Z</time>
      </trkpt>
      <trkpt lat="44.13694" lon="6.91292">
        <ele>1381.59</ele>
        <time>2018-09-15T10:51:33Z</time>
      </trkpt>
      <trkpt lat="44.13696" lon="6.91311">
        <ele>1383.74</ele>
        <time>2018-09-15T10:51:49Z</time>
      </trkpt>
      <trkpt lat="44.13704" lon="6.91331">
        <ele>1385.95</ele>
        <time>2018-09-15T10:52:21Z</time>
      </trkpt>
      <trkpt lat="44.13702" lon="6.91355">
        <ele>1388.17</ele>
        <time>2018-09-15T10:52:52Z</time>
      </trkpt>
      <trkpt lat="44.13702" lon="6.91368">
        <ele>1389.15</ele>
        <time>2018-09-15T10:53:03Z</time>
      </trkpt>
      <trkpt lat="44.13703" lon="6.91381">
        <ele>1389.77</ele>
        <time>2018-09-15T10:53:11Z</time>
      </trkpt>
      <trkpt lat="44.13702" lon="6.91395">
        <ele>1390.89</ele>
        <time>2018-09-15T10:53:22Z</time>
      </trkpt>
      <trkpt lat="44.13701" lon="6.91411">
        <ele>1393.95</ele>
        <time>2018-09-15T10:53:38Z</time>
      </trkpt>
      <trkpt lat="44.13705" lon="6.91425">
        <ele>1396.34</ele>
        <time>2018-09-15T10:53:51Z</time>
      </trkpt>
      <trkpt lat="44.13706" lon="6.91439">
        <ele>1398.11</ele>
        <time>2018-09-15T10:54:01Z</time>
      </trkpt>
      <trkpt lat="44.13696" lon="6.91435">
        <ele>1401.32</ele>
        <time>2018-09-15T10:54:17Z</time>
      </trkpt>
      <trkpt lat="44.13688" lon="6.91424">
        <ele>1404.52</ele>
        <time>2018-09-15T10:54:33Z</time>
      </trkpt>
      <trkpt lat="44.13677" lon="6.91408">
        <ele>1407.6</ele>
        <time>2018-09-15T10:54:51Z</time>
      </trkpt>
      <trkpt lat="44.13665" lon="6.91409">
        <ele>1419.03</ele>
        <time>2018-09-15T10:55:56Z</time>
      </trkpt>
      <trkpt lat="44.13661" lon="6.91427">
        <ele>1423.18</ele>
        <time>2018-09-15T10:56:19Z</time>
      </trkpt>
      <trkpt lat="44.13667" lon="6.91441">
        <ele>1425.75</ele>
        <time>2018-09-15T10:56:35Z</time>
      </trkpt>
      <trkpt lat="44.13661" lon="6.91452">
        <ele>1428.81</ele>
        <time>2018-09-15T10:56:51Z</time>
      </trkpt>
      <trkpt lat="44.13652" lon="6.9144">
        <ele>1432.01</ele>
        <time>2018-09-15T10:57:09Z</time>
      </trkpt>
      <trkpt lat="44.13641" lon="6.91426">
        <ele>1438.13</ele>
        <time>2018-09-15T10:57:38Z</time>
      </trkpt>
      <trkpt lat="44.13635" lon="6.91403">
        <ele>1443.62</ele>
        <time>2018-09-15T10:59:58Z</time>
      </trkpt>
      <trkpt lat="44.13626" lon="6.91397">
        <ele>1446.66</ele>
        <time>2018-09-15T11:00:13Z</time>
      </trkpt>
      <trkpt lat="44.13616" lon="6.91391">
        <ele>1449.8</ele>
        <time>2018-09-15T11:00:31Z</time>
      </trkpt>
      <trkpt lat="44.13607" lon="6.91388">
        <ele>1452.82</ele>
        <time>2018-09-15T11:00:44Z</time>
      </trkpt>
      <trkpt lat="44.13597" lon="6.91391">
        <ele>1455.88</ele>
        <time>2018-09-15T11:00:57Z</time>
      </trkpt>
      <trkpt lat="44.13589" lon="6.91409">
        <ele>1458.68</ele>
        <time>2018-09-15T11:01:14Z</time>
      </trkpt>
      <trkpt lat="44.13594" lon="6.91422">
        <ele>1459.94</ele>
        <time>2018-09-15T11:01:27Z</time>
      </trkpt>
      <trkpt lat="44.13595" lon="6.91435">
        <ele>1465.32</ele>
        <time>2018-09-15T11:01:54Z</time>
      </trkpt>
      <trkpt lat="44.13585" lon="6.91443">
        <ele>1467.55</ele>
        <time>2018-09-15T11:02:09Z</time>
      </trkpt>
      <trkpt lat="44.13585" lon="6.91457">
        <ele>1470.58</ele>
        <time>2018-09-15T11:02:22Z</time>
      </trkpt>
      <trkpt lat="44.13588" lon="6.91471">
        <ele>1473.72</ele>
        <time>2018-09-15T11:02:37Z</time>
      </trkpt>
      <trkpt lat="44.13594" lon="6.91488">
        <ele>1476.75</ele>
        <time>2018-09-15T11:02:53Z</time>
      </trkpt>
      <trkpt lat="44.13597" lon="6.91504">
        <ele>1479.26</ele>
        <time>2018-09-15T11:03:07Z</time>
      </trkpt>
      <trkpt lat="44.13604" lon="6.91514">
        <ele>1481.9</ele>
        <time>2018-09-15T11:03:20Z</time>
      </trkpt>
      <trkpt lat="44.13613" lon="6.91534">
        <ele>1487.37</ele>
        <time>2018-09-15T11:03:46Z</time>
      </trkpt>
      <trkpt lat="44.13609" lon="6.91547">
        <ele>1495.43</ele>
        <time>2018-09-15T11:04:57Z</time>
      </trkpt>
      <trkpt lat="44.136" lon="6.91554">
        <ele>1497.36</ele>
        <time>2018-09-15T11:05:31Z</time>
      </trkpt>
      <trkpt lat="44.13591" lon="6.91561">
        <ele>1499.07</ele>
        <time>2018-09-15T11:05:44Z</time>
      </trkpt>
      <trkpt lat="44.13598" lon="6.91569">
        <ele>1501.04</ele>
        <time>2018-09-15T11:05:54Z</time>
      </trkpt>
      <trkpt lat="44.13589" lon="6.91582">
        <ele>1505.45</ele>
        <time>2018-09-15T11:06:14Z</time>
      </trkpt>
      <trkpt lat="44.13581" lon="6.91594">
        <ele>1507.51</ele>
        <time>2018-09-15T11:06:25Z</time>
      </trkpt>
      <trkpt lat="44.1359" lon="6.91603">
        <ele>1511.2</ele>
        <time>2018-09-15T11:06:41Z</time>
      </trkpt>
      <trkpt lat="44.13602" lon="6.91605">
        <ele>1514.19</ele>
        <time>2018-09-15T11:07:02Z</time>
      </trkpt>
      <trkpt lat="44.13611" lon="6.91619">
        <ele>1516.67</ele>
        <time>2018-09-15T11:07:15Z</time>
      </trkpt>
      <trkpt lat="44.13614" lon="6.91634">
        <ele>1518.56</ele>
        <time>2018-09-15T11:07:25Z</time>
      </trkpt>
      <trkpt lat="44.13614" lon="6.9165">
        <ele>1519.93</ele>
        <time>2018-09-15T11:07:36Z</time>
      </trkpt>
      <trkpt lat="44.13611" lon="6.91679">
        <ele>1523.88</ele>
        <time>2018-09-15T11:07:57Z</time>
      </trkpt>
      <trkpt lat="44.13612" lon="6.91695">
        <ele>1526.59</ele>
        <time>2018-09-15T11:08:08Z</time>
      </trkpt>
      <trkpt lat="44.13618" lon="6.91705">
        <ele>1528.86</ele>
        <time>2018-09-15T11:08:19Z</time>
      </trkpt>
      <trkpt lat="44.13628" lon="6.9172">
        <ele>1530.78</ele>
        <time>2018-09-15T11:08:54Z</time>
      </trkpt>
      <trkpt lat="44.13634" lon="6.91731">
        <ele>1532.51</ele>
        <time>2018-09-15T11:09:07Z</time>
      </trkpt>
      <trkpt lat="44.13644" lon="6.9173">
        <ele>1534.99</ele>
        <time>2018-09-15T11:09:51Z</time>
      </trkpt>
      <trkpt lat="44.1365" lon="6.91739">
        <ele>1536.71</ele>
        <time>2018-09-15T11:10:00Z</time>
      </trkpt>
      <trkpt lat="44.1366" lon="6.91749">
        <ele>1539.06</ele>
        <time>2018-09-15T11:10:13Z</time>
      </trkpt>
      <trkpt lat="44.13671" lon="6.91759">
        <ele>1541.22</ele>
        <time>2018-09-15T11:10:24Z</time>
      </trkpt>
      <trkpt lat="44.1368" lon="6.91768">
        <ele>1542.8</ele>
        <time>2018-09-15T11:10:34Z</time>
      </trkpt>
      <trkpt lat="44.13687" lon="6.91779">
        <ele>1544.5</ele>
        <time>2018-09-15T11:10:45Z</time>
      </trkpt>
      <trkpt lat="44.13705" lon="6.91794">
        <ele>1547.62</ele>
        <time>2018-09-15T11:11:04Z</time>
      </trkpt>
      <trkpt lat="44.13711" lon="6.91811">
        <ele>1549.92</ele>
        <time>2018-09-15T11:11:18Z</time>
      </trkpt>
      <trkpt lat="44.13715" lon="6.91825">
        <ele>1552.07</ele>
        <time>2018-09-15T11:11:27Z</time>
      </trkpt>
      <trkpt lat="44.13707" lon="6.91851">
        <ele>1553.93</ele>
        <time>2018-09-15T11:11:44Z</time>
      </trkpt>
      <trkpt lat="44.13716" lon="6.91861">
        <ele>1554.88</ele>
        <time>2018-09-15T11:11:55Z</time>
      </trkpt>
      <trkpt lat="44.1372" lon="6.91875">
        <ele>1557.17</ele>
        <time>2018-09-15T11:12:06Z</time>
      </trkpt>
      <trkpt lat="44.13721" lon="6.91888">
        <ele>1560.32</ele>
        <time>2018-09-15T11:12:19Z</time>
      </trkpt>
      <trkpt lat="44.13722" lon="6.91912">
        <ele>1564.85</ele>
        <time>2018-09-15T11:12:41Z</time>
      </trkpt>
      <trkpt lat="44.13711" lon="6.91941">
        <ele>1567.64</ele>
        <time>2018-09-15T11:14:01Z</time>
      </trkpt>
      <trkpt lat="44.13714" lon="6.91964">
        <ele>1566.43</ele>
        <time>2018-09-15T11:14:17Z</time>
      </trkpt>
      <trkpt lat="44.1372" lon="6.91976">
        <ele>1568.5</ele>
        <time>2018-09-15T11:16:05Z</time>
      </trkpt>
      <trkpt lat="44.13729" lon="6.91977">
        <ele>1570.26</ele>
        <time>2018-09-15T11:16:19Z</time>
      </trkpt>
      <trkpt lat="44.13718" lon="6.91996">
        <ele>1574.65</ele>
        <time>2018-09-15T11:17:15Z</time>
      </trkpt>
      <trkpt lat="44.13711" lon="6.92009">
        <ele>1577.82</ele>
        <time>2018-09-15T11:17:31Z</time>
      </trkpt>
      <trkpt lat="44.13722" lon="6.92008">
        <ele>1579.82</ele>
        <time>2018-09-15T11:17:43Z</time>
      </trkpt>
      <trkpt lat="44.13731" lon="6.92016">
        <ele>1584.28</ele>
        <time>2018-09-15T11:18:08Z</time>
      </trkpt>
      <trkpt lat="44.1373" lon="6.92036">
        <ele>1587.75</ele>
        <time>2018-09-15T11:18:25Z</time>
      </trkpt>
      <trkpt lat="44.13728" lon="6.9205">
        <ele>1590.79</ele>
        <time>2018-09-15T11:18:38Z</time>
      </trkpt>
      <trkpt lat="44.13717" lon="6.92058">
        <ele>1593.19</ele>
        <time>2018-09-15T11:18:52Z</time>
      </trkpt>
      <trkpt lat="44.13712" lon="6.92069">
        <ele>1595.05</ele>
        <time>2018-09-15T11:19:03Z</time>
      </trkpt>
      <trkpt lat="44.13709" lon="6.92088">
        <ele>1598</ele>
        <time>2018-09-15T11:19:18Z</time>
      </trkpt>
      <trkpt lat="44.13709" lon="6.92101">
        <ele>1599.75</ele>
        <time>2018-09-15T11:19:29Z</time>
      </trkpt>
      <trkpt lat="44.13712" lon="6.92115">
        <ele>1603.61</ele>
        <time>2018-09-15T11:20:14Z</time>
      </trkpt>
      <trkpt lat="44.13714" lon="6.92128">
        <ele>1605.16</ele>
        <time>2018-09-15T11:20:23Z</time>
      </trkpt>
      <trkpt lat="44.13723" lon="6.92132">
        <ele>1607.97</ele>
        <time>2018-09-15T11:20:36Z</time>
      </trkpt>
      <trkpt lat="44.13732" lon="6.92125">
        <ele>1610.71</ele>
        <time>2018-09-15T11:20:48Z</time>
      </trkpt>
      <trkpt lat="44.13736" lon="6.92109">
        <ele>1613.23</ele>
        <time>2018-09-15T11:21:00Z</time>
      </trkpt>
      <trkpt lat="44.13748" lon="6.92106">
        <ele>1617.85</ele>
        <time>2018-09-15T11:21:23Z</time>
      </trkpt>
      <trkpt lat="44.13757" lon="6.92104">
        <ele>1621.59</ele>
        <time>2018-09-15T11:22:47Z</time>
      </trkpt>
      <trkpt lat="44.13762" lon="6.92123">
        <ele>1625.15</ele>
        <time>2018-09-15T11:23:09Z</time>
      </trkpt>
      <trkpt lat="44.13763" lon="6.92144">
        <ele>1630.49</ele>
        <time>2018-09-15T11:23:36Z</time>
      </trkpt>
      <trkpt lat="44.13763" lon="6.92163">
        <ele>1635.96</ele>
        <time>2018-09-15T11:24:04Z</time>
      </trkpt>
      <trkpt lat="44.13776" lon="6.92173">
        <ele>1641.99</ele>
        <time>2018-09-15T11:24:33Z</time>
      </trkpt>
      <trkpt lat="44.13782" lon="6.92187">
        <ele>1648.14</ele>
        <time>2018-09-15T11:25:05Z</time>
      </trkpt>
      <trkpt lat="44.13797" lon="6.92196">
        <ele>1653.22</ele>
        <time>2018-09-15T11:25:32Z</time>
      </trkpt>
      <trkpt lat="44.13815" lon="6.92198">
        <ele>1656.35</ele>
        <time>2018-09-15T11:25:56Z</time>
      </trkpt>
      <trkpt lat="44.13829" lon="6.922">
        <ele>1659.05</ele>
        <time>2018-09-15T11:26:15Z</time>
      </trkpt>
      <trkpt lat="44.13841" lon="6.92201">
        <ele>1662.05</ele>
        <time>2018-09-15T11:26:31Z</time>
      </trkpt>
      <trkpt lat="44.13853" lon="6.92217">
        <ele>1665.08</ele>
        <time>2018-09-15T11:26:48Z</time>
      </trkpt>
      <trkpt lat="44.13864" lon="6.92232">
        <ele>1666.9</ele>
        <time>2018-09-15T11:27:00Z</time>
      </trkpt>
      <trkpt lat="44.13879" lon="6.92249">
        <ele>1670.11</ele>
        <time>2018-09-15T11:27:17Z</time>
      </trkpt>
      <trkpt lat="44.13888" lon="6.92263">
        <ele>1674.08</ele>
        <time>2018-09-15T11:27:35Z</time>
      </trkpt>
      <trkpt lat="44.13903" lon="6.92275">
        <ele>1678.82</ele>
        <time>2018-09-15T11:28:08Z</time>
      </trkpt>
      <trkpt lat="44.13905" lon="6.92291">
        <ele>1682.09</ele>
        <time>2018-09-15T11:28:22Z</time>
      </trkpt>
      <trkpt lat="44.13907" lon="6.92307">
        <ele>1684.36</ele>
        <time>2018-09-15T11:28:36Z</time>
      </trkpt>
      <trkpt lat="44.13909" lon="6.92328">
        <ele>1687.32</ele>
        <time>2018-09-15T11:28:51Z</time>
      </trkpt>
      <trkpt lat="44.13909" lon="6.92345">
        <ele>1689.93</ele>
        <time>2018-09-15T11:29:05Z</time>
      </trkpt>
      <trkpt lat="44.13912" lon="6.92365">
        <ele>1692.76</ele>
        <time>2018-09-15T11:29:21Z</time>
      </trkpt>
      <trkpt lat="44.13922" lon="6.92378">
        <ele>1695.61</ele>
        <time>2018-09-15T11:29:39Z</time>
      </trkpt>
      <trkpt lat="44.1393" lon="6.9239">
        <ele>1698.41</ele>
        <time>2018-09-15T11:29:54Z</time>
      </trkpt>
      <trkpt lat="44.13931" lon="6.92405">
        <ele>1701.64</ele>
        <time>2018-09-15T11:30:08Z</time>
      </trkpt>
      <trkpt lat="44.13932" lon="6.92428">
        <ele>1706.42</ele>
        <time>2018-09-15T11:30:32Z</time>
      </trkpt>
      <trkpt lat="44.13935" lon="6.92444">
        <ele>1711.35</ele>
        <time>2018-09-15T11:30:56Z</time>
      </trkpt>
      <trkpt lat="44.13929" lon="6.92461">
        <ele>1714.5</ele>
        <time>2018-09-15T11:31:15Z</time>
      </trkpt>
      <trkpt lat="44.13919" lon="6.92466">
        <ele>1716.38</ele>
        <time>2018-09-15T11:31:28Z</time>
      </trkpt>
      <trkpt lat="44.13909" lon="6.92474">
        <ele>1719.01</ele>
        <time>2018-09-15T11:31:41Z</time>
      </trkpt>
      <trkpt lat="44.13901" lon="6.92482">
        <ele>1721.92</ele>
        <time>2018-09-15T11:31:55Z</time>
      </trkpt>
      <trkpt lat="44.13891" lon="6.92494">
        <ele>1729.82</ele>
        <time>2018-09-15T11:32:33Z</time>
      </trkpt>
      <trkpt lat="44.13876" lon="6.9249">
        <ele>1732.76</ele>
        <time>2018-09-15T11:32:51Z</time>
      </trkpt>
      <trkpt lat="44.13862" lon="6.92496">
        <ele>1737.09</ele>
        <time>2018-09-15T11:33:24Z</time>
      </trkpt>
      <trkpt lat="44.13855" lon="6.92506">
        <ele>1742.58</ele>
        <time>2018-09-15T11:33:56Z</time>
      </trkpt>
      <trkpt lat="44.13841" lon="6.9251">
        <ele>1745.47</ele>
        <time>2018-09-15T11:34:11Z</time>
      </trkpt>
      <trkpt lat="44.1383" lon="6.92511">
        <ele>1748.26</ele>
        <time>2018-09-15T11:34:24Z</time>
      </trkpt>
      <trkpt lat="44.1382" lon="6.92518">
        <ele>1751.34</ele>
        <time>2018-09-15T11:34:38Z</time>
      </trkpt>
      <trkpt lat="44.13805" lon="6.92541">
        <ele>1760.29</ele>
        <time>2018-09-15T11:35:34Z</time>
      </trkpt>
      <trkpt lat="44.13795" lon="6.92546">
        <ele>1763.79</ele>
        <time>2018-09-15T11:35:54Z</time>
      </trkpt>
      <trkpt lat="44.13783" lon="6.92547">
        <ele>1767.21</ele>
        <time>2018-09-15T11:36:59Z</time>
      </trkpt>
      <trkpt lat="44.13774" lon="6.92537">
        <ele>1768.43</ele>
        <time>2018-09-15T11:37:09Z</time>
      </trkpt>
      <trkpt lat="44.13757" lon="6.92537">
        <ele>1771.73</ele>
        <time>2018-09-15T11:37:37Z</time>
      </trkpt>
      <trkpt lat="44.13734" lon="6.92549">
        <ele>1773.87</ele>
        <time>2018-09-15T11:38:27Z</time>
      </trkpt>
      <trkpt lat="44.13719" lon="6.92549">
        <ele>1774.47</ele>
        <time>2018-09-15T11:38:45Z</time>
      </trkpt>
      <trkpt lat="44.13709" lon="6.92556">
        <ele>1774.62</ele>
        <time>2018-09-15T11:38:56Z</time>
      </trkpt>
      <trkpt lat="44.13698" lon="6.92573">
        <ele>1773.43</ele>
        <time>2018-09-15T11:39:10Z</time>
      </trkpt>
      <trkpt lat="44.1369" lon="6.9258">
        <ele>1772.36</ele>
        <time>2018-09-15T11:39:19Z</time>
      </trkpt>
      <trkpt lat="44.13677" lon="6.92569">
        <ele>1772.36</ele>
        <time>2018-09-15T11:39:31Z</time>
      </trkpt>
      <trkpt lat="44.13654" lon="6.92566">
        <ele>1774.45</ele>
        <time>2018-09-15T11:39:53Z</time>
      </trkpt>
      <trkpt lat="44.13645" lon="6.92559">
        <ele>1773.5</ele>
        <time>2018-09-15T11:40:03Z</time>
      </trkpt>
      <trkpt lat="44.13636" lon="6.92539">
        <ele>1774.41</ele>
        <time>2018-09-15T11:40:18Z</time>
      </trkpt>
      <trkpt lat="44.13627" lon="6.92529">
        <ele>1777.62</ele>
        <time>2018-09-15T11:40:32Z</time>
      </trkpt>
      <trkpt lat="44.13619" lon="6.9254">
        <ele>1781.41</ele>
        <time>2018-09-15T11:41:04Z</time>
      </trkpt>
      <trkpt lat="44.13611" lon="6.92552">
        <ele>1781.91</ele>
        <time>2018-09-15T11:41:14Z</time>
      </trkpt>
      <trkpt lat="44.13603" lon="6.92561">
        <ele>1782.77</ele>
        <time>2018-09-15T11:41:28Z</time>
      </trkpt>
      <trkpt lat="44.13587" lon="6.92573">
        <ele>1782.33</ele>
        <time>2018-09-15T11:41:47Z</time>
      </trkpt>
      <trkpt lat="44.13579" lon="6.92585">
        <ele>1781.43</ele>
        <time>2018-09-15T11:42:00Z</time>
      </trkpt>
      <trkpt lat="44.13569" lon="6.92593">
        <ele>1782.69</ele>
        <time>2018-09-15T11:42:28Z</time>
      </trkpt>
      <trkpt lat="44.13557" lon="6.92587">
        <ele>1784.99</ele>
        <time>2018-09-15T11:42:44Z</time>
      </trkpt>
      <trkpt lat="44.13549" lon="6.92577">
        <ele>1788</ele>
        <time>2018-09-15T11:42:57Z</time>
      </trkpt>
      <trkpt lat="44.1354" lon="6.92566">
        <ele>1790.69</ele>
        <time>2018-09-15T11:43:12Z</time>
      </trkpt>
      <trkpt lat="44.13523" lon="6.92564">
        <ele>1793.15</ele>
        <time>2018-09-15T11:43:40Z</time>
      </trkpt>
      <trkpt lat="44.13513" lon="6.9256">
        <ele>1793.28</ele>
        <time>2018-09-15T11:43:50Z</time>
      </trkpt>
      <trkpt lat="44.13495" lon="6.92549">
        <ele>1793.7</ele>
        <time>2018-09-15T11:44:06Z</time>
      </trkpt>
      <trkpt lat="44.13475" lon="6.92545">
        <ele>1792.83</ele>
        <time>2018-09-15T11:44:21Z</time>
      </trkpt>
      <trkpt lat="44.13465" lon="6.92541">
        <ele>1792.53</ele>
        <time>2018-09-15T11:44:29Z</time>
      </trkpt>
      <trkpt lat="44.13444" lon="6.92531">
        <ele>1792.22</ele>
        <time>2018-09-15T11:44:44Z</time>
      </trkpt>
      <trkpt lat="44.13426" lon="6.92523">
        <ele>1792.83</ele>
        <time>2018-09-15T11:45:00Z</time>
      </trkpt>
      <trkpt lat="44.13408" lon="6.92522">
        <ele>1792.77</ele>
        <time>2018-09-15T11:45:15Z</time>
      </trkpt>
      <trkpt lat="44.13395" lon="6.9252">
        <ele>1792.6</ele>
        <time>2018-09-15T11:45:35Z</time>
      </trkpt>
      <trkpt lat="44.13372" lon="6.92515">
        <ele>1792.07</ele>
        <time>2018-09-15T11:45:52Z</time>
      </trkpt>
      <trkpt lat="44.1335" lon="6.92512">
        <ele>1792.17</ele>
        <time>2018-09-15T11:46:08Z</time>
      </trkpt>
      <trkpt lat="44.13325" lon="6.92512">
        <ele>1792.01</ele>
        <time>2018-09-15T11:46:25Z</time>
      </trkpt>
      <trkpt lat="44.1331" lon="6.92509">
        <ele>1792.19</ele>
        <time>2018-09-15T11:46:37Z</time>
      </trkpt>
      <trkpt lat="44.13299" lon="6.92512">
        <ele>1792.46</ele>
        <time>2018-09-15T11:47:03Z</time>
      </trkpt>
      <trkpt lat="44.13274" lon="6.92511">
        <ele>1791.54</ele>
        <time>2018-09-15T11:47:28Z</time>
      </trkpt>
      <trkpt lat="44.13263" lon="6.92509">
        <ele>1790.1</ele>
        <time>2018-09-15T11:48:05Z</time>
      </trkpt>
      <trkpt lat="44.13266" lon="6.92522">
        <ele>1794.52</ele>
        <time>2018-09-15T11:58:35Z</time>
      </trkpt>
      <trkpt lat="44.13268" lon="6.92536">
        <ele>1796.6</ele>
        <time>2018-09-15T11:58:50Z</time>
      </trkpt>
      <trkpt lat="44.13278" lon="6.92547">
        <ele>1799.72</ele>
        <time>2018-09-15T11:59:06Z</time>
      </trkpt>
      <trkpt lat="44.13285" lon="6.92561">
        <ele>1806.08</ele>
        <time>2018-09-15T11:59:56Z</time>
      </trkpt>
      <trkpt lat="44.13297" lon="6.92566">
        <ele>1807.7</ele>
        <time>2018-09-15T12:00:29Z</time>
      </trkpt>
      <trkpt lat="44.13308" lon="6.92573">
        <ele>1809.17</ele>
        <time>2018-09-15T12:00:41Z</time>
      </trkpt>
      <trkpt lat="44.13318" lon="6.92578">
        <ele>1810.77</ele>
        <time>2018-09-15T12:00:51Z</time>
      </trkpt>
      <trkpt lat="44.13336" lon="6.92589">
        <ele>1813.6</ele>
        <time>2018-09-15T12:01:08Z</time>
      </trkpt>
      <trkpt lat="44.13348" lon="6.92594">
        <ele>1815.47</ele>
        <time>2018-09-15T12:01:20Z</time>
      </trkpt>
      <trkpt lat="44.13357" lon="6.92599">
        <ele>1817.38</ele>
        <time>2018-09-15T12:01:29Z</time>
      </trkpt>
      <trkpt lat="44.13366" lon="6.92608">
        <ele>1819.87</ele>
        <time>2018-09-15T12:01:41Z</time>
      </trkpt>
      <trkpt lat="44.13375" lon="6.92618">
        <ele>1822.09</ele>
        <time>2018-09-15T12:01:53Z</time>
      </trkpt>
      <trkpt lat="44.1339" lon="6.9263">
        <ele>1826.25</ele>
        <time>2018-09-15T12:02:13Z</time>
      </trkpt>
      <trkpt lat="44.13403" lon="6.92638">
        <ele>1830.06</ele>
        <time>2018-09-15T12:02:31Z</time>
      </trkpt>
      <trkpt lat="44.13418" lon="6.92648">
        <ele>1834.12</ele>
        <time>2018-09-15T12:02:54Z</time>
      </trkpt>
      <trkpt lat="44.13428" lon="6.92654">
        <ele>1839.45</ele>
        <time>2018-09-15T12:03:46Z</time>
      </trkpt>
      <trkpt lat="44.13441" lon="6.92664">
        <ele>1839.96</ele>
        <time>2018-09-15T12:04:01Z</time>
      </trkpt>
      <trkpt lat="44.13452" lon="6.92671">
        <ele>1842.09</ele>
        <time>2018-09-15T12:04:14Z</time>
      </trkpt>
      <trkpt lat="44.13459" lon="6.92681">
        <ele>1845.11</ele>
        <time>2018-09-15T12:04:27Z</time>
      </trkpt>
      <trkpt lat="44.13473" lon="6.92699">
        <ele>1849.29</ele>
        <time>2018-09-15T12:04:46Z</time>
      </trkpt>
      <trkpt lat="44.13484" lon="6.92711">
        <ele>1852.14</ele>
        <time>2018-09-15T12:05:00Z</time>
      </trkpt>
      <trkpt lat="44.13493" lon="6.92722">
        <ele>1854.11</ele>
        <time>2018-09-15T12:05:11Z</time>
      </trkpt>
      <trkpt lat="44.13499" lon="6.92735">
        <ele>1857.22</ele>
        <time>2018-09-15T12:05:25Z</time>
      </trkpt>
      <trkpt lat="44.13491" lon="6.92751">
        <ele>1862.23</ele>
        <time>2018-09-15T12:05:47Z</time>
      </trkpt>
      <trkpt lat="44.13485" lon="6.92761">
        <ele>1865.79</ele>
        <time>2018-09-15T12:06:03Z</time>
      </trkpt>
      <trkpt lat="44.13472" lon="6.92759">
        <ele>1867.86</ele>
        <time>2018-09-15T12:06:17Z</time>
      </trkpt>
      <trkpt lat="44.13461" lon="6.92761">
        <ele>1870.18</ele>
        <time>2018-09-15T12:06:29Z</time>
      </trkpt>
      <trkpt lat="44.13452" lon="6.9276">
        <ele>1872.5</ele>
        <time>2018-09-15T12:06:42Z</time>
      </trkpt>
      <trkpt lat="44.13438" lon="6.92762">
        <ele>1875.75</ele>
        <time>2018-09-15T12:06:59Z</time>
      </trkpt>
      <trkpt lat="44.13425" lon="6.92761">
        <ele>1877.82</ele>
        <time>2018-09-15T12:07:13Z</time>
      </trkpt>
      <trkpt lat="44.13414" lon="6.92758">
        <ele>1880.73</ele>
        <time>2018-09-15T12:07:27Z</time>
      </trkpt>
      <trkpt lat="44.13409" lon="6.92771">
        <ele>1884.71</ele>
        <time>2018-09-15T12:07:50Z</time>
      </trkpt>
      <trkpt lat="44.13423" lon="6.92788">
        <ele>1886.98</ele>
        <time>2018-09-15T12:09:05Z</time>
      </trkpt>
      <trkpt lat="44.13433" lon="6.92801">
        <ele>1889.11</ele>
        <time>2018-09-15T12:09:17Z</time>
      </trkpt>
      <trkpt lat="44.13442" lon="6.92813">
        <ele>1890.89</ele>
        <time>2018-09-15T12:09:28Z</time>
      </trkpt>
      <trkpt lat="44.1345" lon="6.92826">
        <ele>1892.92</ele>
        <time>2018-09-15T12:09:39Z</time>
      </trkpt>
      <trkpt lat="44.13454" lon="6.92841">
        <ele>1894.97</ele>
        <time>2018-09-15T12:09:50Z</time>
      </trkpt>
      <trkpt lat="44.13462" lon="6.92856">
        <ele>1897.91</ele>
        <time>2018-09-15T12:10:04Z</time>
      </trkpt>
      <trkpt lat="44.13471" lon="6.92871">
        <ele>1900.44</ele>
        <time>2018-09-15T12:10:17Z</time>
      </trkpt>
      <trkpt lat="44.1348" lon="6.92883">
        <ele>1903.16</ele>
        <time>2018-09-15T12:10:29Z</time>
      </trkpt>
      <trkpt lat="44.13487" lon="6.92891">
        <ele>1905.48</ele>
        <time>2018-09-15T12:10:41Z</time>
      </trkpt>
      <trkpt lat="44.13494" lon="6.92904">
        <ele>1908.5</ele>
        <time>2018-09-15T12:10:56Z</time>
      </trkpt>
      <trkpt lat="44.13507" lon="6.9293">
        <ele>1911.88</ele>
        <time>2018-09-15T12:11:17Z</time>
      </trkpt>
      <trkpt lat="44.13525" lon="6.92943">
        <ele>1915.29</ele>
        <time>2018-09-15T12:11:38Z</time>
      </trkpt>
      <trkpt lat="44.13535" lon="6.9295">
        <ele>1916.79</ele>
        <time>2018-09-15T12:11:49Z</time>
      </trkpt>
      <trkpt lat="44.13549" lon="6.92953">
        <ele>1918.77</ele>
        <time>2018-09-15T12:12:04Z</time>
      </trkpt>
      <trkpt lat="44.13563" lon="6.92963">
        <ele>1923.87</ele>
        <time>2018-09-15T12:12:25Z</time>
      </trkpt>
      <trkpt lat="44.13578" lon="6.9297">
        <ele>1928.04</ele>
        <time>2018-09-15T12:12:49Z</time>
      </trkpt>
      <trkpt lat="44.13589" lon="6.92968">
        <ele>1929.99</ele>
        <time>2018-09-15T12:13:02Z</time>
      </trkpt>
      <trkpt lat="44.13598" lon="6.92966">
        <ele>1931.92</ele>
        <time>2018-09-15T12:13:13Z</time>
      </trkpt>
      <trkpt lat="44.13614" lon="6.9297">
        <ele>1936.54</ele>
        <time>2018-09-15T12:13:36Z</time>
      </trkpt>
      <trkpt lat="44.13625" lon="6.92966">
        <ele>1939.83</ele>
        <time>2018-09-15T12:13:51Z</time>
      </trkpt>
      <trkpt lat="44.13644" lon="6.92968">
        <ele>1943.7</ele>
        <time>2018-09-15T12:14:14Z</time>
      </trkpt>
      <trkpt lat="44.13664" lon="6.92968">
        <ele>1947.39</ele>
        <time>2018-09-15T12:14:33Z</time>
      </trkpt>
      <trkpt lat="44.13676" lon="6.92971">
        <ele>1950.04</ele>
        <time>2018-09-15T12:15:31Z</time>
      </trkpt>
      <trkpt lat="44.13688" lon="6.92981">
        <ele>1954.61</ele>
        <time>2018-09-15T12:15:50Z</time>
      </trkpt>
      <trkpt lat="44.13697" lon="6.9299">
        <ele>1958.44</ele>
        <time>2018-09-15T12:16:43Z</time>
      </trkpt>
      <trkpt lat="44.13715" lon="6.92993">
        <ele>1961.76</ele>
        <time>2018-09-15T12:17:05Z</time>
      </trkpt>
      <trkpt lat="44.13725" lon="6.92999">
        <ele>1966.2</ele>
        <time>2018-09-15T12:17:22Z</time>
      </trkpt>
      <trkpt lat="44.13749" lon="6.93">
        <ele>1969.26</ele>
        <time>2018-09-15T12:17:48Z</time>
      </trkpt>
      <trkpt lat="44.13759" lon="6.93007">
        <ele>1969.59</ele>
        <time>2018-09-15T12:17:58Z</time>
      </trkpt>
      <trkpt lat="44.13779" lon="6.93015">
        <ele>1972.43</ele>
        <time>2018-09-15T12:18:16Z</time>
      </trkpt>
      <trkpt lat="44.1379" lon="6.93019">
        <ele>1974.1</ele>
        <time>2018-09-15T12:18:28Z</time>
      </trkpt>
      <trkpt lat="44.13803" lon="6.93029">
        <ele>1975.09</ele>
        <time>2018-09-15T12:18:39Z</time>
      </trkpt>
      <trkpt lat="44.13811" lon="6.93038">
        <ele>1976.69</ele>
        <time>2018-09-15T12:18:51Z</time>
      </trkpt>
      <trkpt lat="44.1382" lon="6.93046">
        <ele>1979.02</ele>
        <time>2018-09-15T12:19:02Z</time>
      </trkpt>
      <trkpt lat="44.13828" lon="6.93054">
        <ele>1982.22</ele>
        <time>2018-09-15T12:19:15Z</time>
      </trkpt>
      <trkpt lat="44.13842" lon="6.93064">
        <ele>1987.85</ele>
        <time>2018-09-15T12:19:42Z</time>
      </trkpt>
      <trkpt lat="44.13851" lon="6.93068">
        <ele>1990.48</ele>
        <time>2018-09-15T12:19:53Z</time>
      </trkpt>
      <trkpt lat="44.13864" lon="6.93078">
        <ele>1995.83</ele>
        <time>2018-09-15T12:20:18Z</time>
      </trkpt>
      <trkpt lat="44.13873" lon="6.93087">
        <ele>2000.06</ele>
        <time>2018-09-15T12:20:48Z</time>
      </trkpt>
      <trkpt lat="44.13882" lon="6.93092">
        <ele>2002.92</ele>
        <time>2018-09-15T12:21:05Z</time>
      </trkpt>
      <trkpt lat="44.13892" lon="6.93108">
        <ele>2008.49</ele>
        <time>2018-09-15T12:21:51Z</time>
      </trkpt>
      <trkpt lat="44.13906" lon="6.93118">
        <ele>2020.05</ele>
        <time>2018-09-15T12:28:29Z</time>
      </trkpt>
      <trkpt lat="44.13916" lon="6.93116">
        <ele>2023.06</ele>
        <time>2018-09-15T12:28:45Z</time>
      </trkpt>
      <trkpt lat="44.13925" lon="6.93121">
        <ele>2028.63</ele>
        <time>2018-09-15T12:29:33Z</time>
      </trkpt>
      <trkpt lat="44.13919" lon="6.93131">
        <ele>2031.82</ele>
        <time>2018-09-15T12:29:48Z</time>
      </trkpt>
      <trkpt lat="44.13912" lon="6.93145">
        <ele>2036.94</ele>
        <time>2018-09-15T12:30:15Z</time>
      </trkpt>
      <trkpt lat="44.13913" lon="6.93158">
        <ele>2041.9</ele>
        <time>2018-09-15T12:30:42Z</time>
      </trkpt>
      <trkpt lat="44.13905" lon="6.93179">
        <ele>2047.9</ele>
        <time>2018-09-15T12:31:09Z</time>
      </trkpt>
      <trkpt lat="44.13919" lon="6.93183">
        <ele>2051.95</ele>
        <time>2018-09-15T12:31:42Z</time>
      </trkpt>
      <trkpt lat="44.13928" lon="6.93185">
        <ele>2054.37</ele>
        <time>2018-09-15T12:31:54Z</time>
      </trkpt>
      <trkpt lat="44.13937" lon="6.93189">
        <ele>2056.82</ele>
        <time>2018-09-15T12:32:07Z</time>
      </trkpt>
      <trkpt lat="44.13939" lon="6.93205">
        <ele>2060.45</ele>
        <time>2018-09-15T12:32:33Z</time>
      </trkpt>
      <trkpt lat="44.13933" lon="6.93217">
        <ele>2061.4</ele>
        <time>2018-09-15T12:32:46Z</time>
      </trkpt>
      <trkpt lat="44.13922" lon="6.93229">
        <ele>2064.12</ele>
        <time>2018-09-15T12:33:01Z</time>
      </trkpt>
      <trkpt lat="44.13915" lon="6.93244">
        <ele>2067.05</ele>
        <time>2018-09-15T12:33:17Z</time>
      </trkpt>
      <trkpt lat="44.13906" lon="6.93252">
        <ele>2068.22</ele>
        <time>2018-09-15T12:33:27Z</time>
      </trkpt>
      <trkpt lat="44.13892" lon="6.93261">
        <ele>2069.63</ele>
        <time>2018-09-15T12:33:41Z</time>
      </trkpt>
      <trkpt lat="44.13882" lon="6.93267">
        <ele>2070.16</ele>
        <time>2018-09-15T12:33:49Z</time>
      </trkpt>
      <trkpt lat="44.13859" lon="6.93281">
        <ele>2071.74</ele>
        <time>2018-09-15T12:34:09Z</time>
      </trkpt>
      <trkpt lat="44.13843" lon="6.93295">
        <ele>2072.44</ele>
        <time>2018-09-15T12:34:23Z</time>
      </trkpt>
      <trkpt lat="44.13828" lon="6.93316">
        <ele>2073.68</ele>
        <time>2018-09-15T12:34:39Z</time>
      </trkpt>
      <trkpt lat="44.13813" lon="6.93327">
        <ele>2075.5</ele>
        <time>2018-09-15T12:34:53Z</time>
      </trkpt>
      <trkpt lat="44.13794" lon="6.9334">
        <ele>2077.56</ele>
        <time>2018-09-15T12:35:11Z</time>
      </trkpt>
      <trkpt lat="44.13782" lon="6.93349">
        <ele>2079.73</ele>
        <time>2018-09-15T12:35:24Z</time>
      </trkpt>
      <trkpt lat="44.13768" lon="6.93354">
        <ele>2083.07</ele>
        <time>2018-09-15T12:35:41Z</time>
      </trkpt>
      <trkpt lat="44.13756" lon="6.9336">
        <ele>2086.23</ele>
        <time>2018-09-15T12:35:56Z</time>
      </trkpt>
      <trkpt lat="44.13737" lon="6.93375">
        <ele>2092.5</ele>
        <time>2018-09-15T12:36:22Z</time>
      </trkpt>
      <trkpt lat="44.13729" lon="6.93385">
        <ele>2095.5</ele>
        <time>2018-09-15T12:36:36Z</time>
      </trkpt>
      <trkpt lat="44.13722" lon="6.93399">
        <ele>2098.62</ele>
        <time>2018-09-15T12:36:51Z</time>
      </trkpt>
      <trkpt lat="44.13716" lon="6.9341">
        <ele>2101.75</ele>
        <time>2018-09-15T12:37:06Z</time>
      </trkpt>
      <trkpt lat="44.13709" lon="6.93421">
        <ele>2104.8</ele>
        <time>2018-09-15T12:37:21Z</time>
      </trkpt>
      <trkpt lat="44.13708" lon="6.93433">
        <ele>2107.91</ele>
        <time>2018-09-15T12:38:01Z</time>
      </trkpt>
      <trkpt lat="44.13706" lon="6.93455">
        <ele>2111.68</ele>
        <time>2018-09-15T12:38:20Z</time>
      </trkpt>
      <trkpt lat="44.13703" lon="6.93475">
        <ele>2115.35</ele>
        <time>2018-09-15T12:38:37Z</time>
      </trkpt>
      <trkpt lat="44.13699" lon="6.93498">
        <ele>2119.94</ele>
        <time>2018-09-15T12:38:58Z</time>
      </trkpt>
      <trkpt lat="44.13698" lon="6.93514">
        <ele>2123.08</ele>
        <time>2018-09-15T12:39:14Z</time>
      </trkpt>
      <trkpt lat="44.13698" lon="6.9353">
        <ele>2126.15</ele>
        <time>2018-09-15T12:39:29Z</time>
      </trkpt>
      <trkpt lat="44.13701" lon="6.93546">
        <ele>2129.07</ele>
        <time>2018-09-15T12:39:44Z</time>
      </trkpt>
      <trkpt lat="44.13704" lon="6.93567">
        <ele>2135.32</ele>
        <time>2018-09-15T12:40:11Z</time>
      </trkpt>
      <trkpt lat="44.13708" lon="6.93585">
        <ele>2139.72</ele>
        <time>2018-09-15T12:40:57Z</time>
      </trkpt>
      <trkpt lat="44.13715" lon="6.93595">
        <ele>2142.54</ele>
        <time>2018-09-15T12:41:11Z</time>
      </trkpt>
      <trkpt lat="44.13722" lon="6.93606">
        <ele>2145.59</ele>
        <time>2018-09-15T12:41:25Z</time>
      </trkpt>
      <trkpt lat="44.1373" lon="6.93618">
        <ele>2148.59</ele>
        <time>2018-09-15T12:41:39Z</time>
      </trkpt>
      <trkpt lat="44.13738" lon="6.93631">
        <ele>2151.62</ele>
        <time>2018-09-15T12:41:54Z</time>
      </trkpt>
      <trkpt lat="44.13746" lon="6.93646">
        <ele>2154.83</ele>
        <time>2018-09-15T12:42:09Z</time>
      </trkpt>
      <trkpt lat="44.13752" lon="6.93658">
        <ele>2157.97</ele>
        <time>2018-09-15T12:42:25Z</time>
      </trkpt>
      <trkpt lat="44.13763" lon="6.93676">
        <ele>2160.9</ele>
        <time>2018-09-15T12:42:44Z</time>
      </trkpt>
      <trkpt lat="44.13772" lon="6.93691">
        <ele>2164.03</ele>
        <time>2018-09-15T12:43:02Z</time>
      </trkpt>
      <trkpt lat="44.1378" lon="6.93706">
        <ele>2166.66</ele>
        <time>2018-09-15T12:44:00Z</time>
      </trkpt>
      <trkpt lat="44.13791" lon="6.9372">
        <ele>2168.24</ele>
        <time>2018-09-15T12:44:17Z</time>
      </trkpt>
      <trkpt lat="44.13801" lon="6.93739">
        <ele>2170.14</ele>
        <time>2018-09-15T12:44:34Z</time>
      </trkpt>
      <trkpt lat="44.13814" lon="6.93761">
        <ele>2172.81</ele>
        <time>2018-09-15T12:44:53Z</time>
      </trkpt>
      <trkpt lat="44.13825" lon="6.9378">
        <ele>2174.9</ele>
        <time>2018-09-15T12:45:08Z</time>
      </trkpt>
      <trkpt lat="44.13834" lon="6.93806">
        <ele>2177.6</ele>
        <time>2018-09-15T12:45:25Z</time>
      </trkpt>
      <trkpt lat="44.13839" lon="6.93822">
        <ele>2179.83</ele>
        <time>2018-09-15T12:45:36Z</time>
      </trkpt>
      <trkpt lat="44.13844" lon="6.93842">
        <ele>2183.67</ele>
        <time>2018-09-15T12:45:52Z</time>
      </trkpt>
      <trkpt lat="44.13853" lon="6.93862">
        <ele>2187.06</ele>
        <time>2018-09-15T12:46:09Z</time>
      </trkpt>
      <trkpt lat="44.13859" lon="6.93871">
        <ele>2188.97</ele>
        <time>2018-09-15T12:46:19Z</time>
      </trkpt>
      <trkpt lat="44.1387" lon="6.93886">
        <ele>2191.91</ele>
        <time>2018-09-15T12:46:35Z</time>
      </trkpt>
      <trkpt lat="44.1388" lon="6.93903">
        <ele>2195.49</ele>
        <time>2018-09-15T12:46:54Z</time>
      </trkpt>
      <trkpt lat="44.1389" lon="6.93919">
        <ele>2198.98</ele>
        <time>2018-09-15T12:47:12Z</time>
      </trkpt>
      <trkpt lat="44.13899" lon="6.93933">
        <ele>2201.14</ele>
        <time>2018-09-15T12:47:26Z</time>
      </trkpt>
      <trkpt lat="44.13904" lon="6.93946">
        <ele>2203.6</ele>
        <time>2018-09-15T12:47:40Z</time>
      </trkpt>
      <trkpt lat="44.13909" lon="6.93957">
        <ele>2205.71</ele>
        <time>2018-09-15T12:47:51Z</time>
      </trkpt>
      <trkpt lat="44.13916" lon="6.93969">
        <ele>2208.25</ele>
        <time>2018-09-15T12:48:05Z</time>
      </trkpt>
      <trkpt lat="44.13925" lon="6.93977">
        <ele>2210.21</ele>
        <time>2018-09-15T12:48:16Z</time>
      </trkpt>
      <trkpt lat="44.13946" lon="6.93995">
        <ele>2214.36</ele>
        <time>2018-09-15T12:48:40Z</time>
      </trkpt>
      <trkpt lat="44.1396" lon="6.93998">
        <ele>2216.63</ele>
        <time>2018-09-15T12:48:53Z</time>
      </trkpt>
      <trkpt lat="44.13981" lon="6.93999">
        <ele>2221.68</ele>
        <time>2018-09-15T12:49:15Z</time>
      </trkpt>
      <trkpt lat="44.13998" lon="6.94009">
        <ele>2226.51</ele>
        <time>2018-09-15T12:49:38Z</time>
      </trkpt>
      <trkpt lat="44.14011" lon="6.94019">
        <ele>2229.56</ele>
        <time>2018-09-15T12:49:55Z</time>
      </trkpt>
      <trkpt lat="44.14026" lon="6.94037">
        <ele>2232.98</ele>
        <time>2018-09-15T12:50:18Z</time>
      </trkpt>
      <trkpt lat="44.14035" lon="6.9405">
        <ele>2234.71</ele>
        <time>2018-09-15T12:50:33Z</time>
      </trkpt>
      <trkpt lat="44.14006" lon="6.94063">
        <ele>2235.62</ele>
        <time>2018-09-15T12:52:54Z</time>
      </trkpt>
      <trkpt lat="44.13989" lon="6.94064">
        <ele>2234.57</ele>
        <time>2018-09-15T12:53:07Z</time>
      </trkpt>
      <trkpt lat="44.1397" lon="6.94067">
        <ele>2233.94</ele>
        <time>2018-09-15T12:53:23Z</time>
      </trkpt>
      <trkpt lat="44.13951" lon="6.94067">
        <ele>2232.69</ele>
        <time>2018-09-15T12:53:36Z</time>
      </trkpt>
      <trkpt lat="44.13931" lon="6.94063">
        <ele>2231.58</ele>
        <time>2018-09-15T12:53:51Z</time>
      </trkpt>
      <trkpt lat="44.1391" lon="6.94057">
        <ele>2229.51</ele>
        <time>2018-09-15T12:54:06Z</time>
      </trkpt>
      <trkpt lat="44.13891" lon="6.94048">
        <ele>2228.99</ele>
        <time>2018-09-15T12:54:21Z</time>
      </trkpt>
      <trkpt lat="44.13872" lon="6.94041">
        <ele>2228.73</ele>
        <time>2018-09-15T12:54:36Z</time>
      </trkpt>
      <trkpt lat="44.13863" lon="6.94035">
        <ele>2228.87</ele>
        <time>2018-09-15T12:54:50Z</time>
      </trkpt>
      <trkpt lat="44.13837" lon="6.94027">
        <ele>2229.1</ele>
        <time>2018-09-15T12:55:10Z</time>
      </trkpt>
      <trkpt lat="44.13818" lon="6.94023">
        <ele>2228.74</ele>
        <time>2018-09-15T12:55:25Z</time>
      </trkpt>
      <trkpt lat="44.13807" lon="6.94023">
        <ele>2228.97</ele>
        <time>2018-09-15T12:55:39Z</time>
      </trkpt>
      <trkpt lat="44.13787" lon="6.94014">
        <ele>2228.79</ele>
        <time>2018-09-15T12:55:55Z</time>
      </trkpt>
      <trkpt lat="44.13776" lon="6.9401">
        <ele>2229.03</ele>
        <time>2018-09-15T12:56:04Z</time>
      </trkpt>
      <trkpt lat="44.13766" lon="6.94009">
        <ele>2229.32</ele>
        <time>2018-09-15T12:56:11Z</time>
      </trkpt>
      <trkpt lat="44.13757" lon="6.94008">
        <ele>2229.58</ele>
        <time>2018-09-15T12:56:17Z</time>
      </trkpt>
      <trkpt lat="44.13725" lon="6.93998">
        <ele>2231.56</ele>
        <time>2018-09-15T12:56:42Z</time>
      </trkpt>
      <trkpt lat="44.13705" lon="6.93995">
        <ele>2233.09</ele>
        <time>2018-09-15T12:56:58Z</time>
      </trkpt>
      <trkpt lat="44.13688" lon="6.9399">
        <ele>2234.84</ele>
        <time>2018-09-15T12:57:13Z</time>
      </trkpt>
      <trkpt lat="44.1366" lon="6.93985">
        <ele>2237.95</ele>
        <time>2018-09-15T12:57:47Z</time>
      </trkpt>
      <trkpt lat="44.13649" lon="6.9398">
        <ele>2238.82</ele>
        <time>2018-09-15T12:57:57Z</time>
      </trkpt>
      <trkpt lat="44.13632" lon="6.93967">
        <ele>2239.8</ele>
        <time>2018-09-15T12:58:13Z</time>
      </trkpt>
      <trkpt lat="44.13617" lon="6.93955">
        <ele>2240.28</ele>
        <time>2018-09-15T12:58:28Z</time>
      </trkpt>
      <trkpt lat="44.13602" lon="6.9394">
        <ele>2240.67</ele>
        <time>2018-09-15T12:58:42Z</time>
      </trkpt>
      <trkpt lat="44.13583" lon="6.93922">
        <ele>2241.72</ele>
        <time>2018-09-15T12:59:02Z</time>
      </trkpt>
      <trkpt lat="44.13569" lon="6.93913">
        <ele>2242.04</ele>
        <time>2018-09-15T12:59:15Z</time>
      </trkpt>
      <trkpt lat="44.13553" lon="6.93901">
        <ele>2243.07</ele>
        <time>2018-09-15T12:59:30Z</time>
      </trkpt>
      <trkpt lat="44.13537" lon="6.93888">
        <ele>2243.5</ele>
        <time>2018-09-15T12:59:44Z</time>
      </trkpt>
      <trkpt lat="44.13522" lon="6.93878">
        <ele>2243.96</ele>
        <time>2018-09-15T12:59:56Z</time>
      </trkpt>
      <trkpt lat="44.1351" lon="6.93874">
        <ele>2245.2</ele>
        <time>2018-09-15T13:00:06Z</time>
      </trkpt>
      <trkpt lat="44.135" lon="6.93864">
        <ele>2246.07</ele>
        <time>2018-09-15T13:00:25Z</time>
      </trkpt>
      <trkpt lat="44.13491" lon="6.93857">
        <ele>2245.64</ele>
        <time>2018-09-15T13:01:18Z</time>
      </trkpt>
      <trkpt lat="44.13471" lon="6.93852">
        <ele>2244.5</ele>
        <time>2018-09-15T13:01:37Z</time>
      </trkpt>
      <trkpt lat="44.1345" lon="6.93837">
        <ele>2243.59</ele>
        <time>2018-09-15T13:01:54Z</time>
      </trkpt>
      <trkpt lat="44.13443" lon="6.93823">
        <ele>2243.93</ele>
        <time>2018-09-15T13:02:49Z</time>
      </trkpt>
      <trkpt lat="44.13441" lon="6.93807">
        <ele>2240.14</ele>
        <time>2018-09-15T13:03:58Z</time>
      </trkpt>
      <trkpt lat="44.13442" lon="6.93821">
        <ele>2243.73</ele>
        <time>2018-09-15T13:15:47Z</time>
      </trkpt>
      <trkpt lat="44.13437" lon="6.93841">
        <ele>2243.08</ele>
        <time>2018-09-15T13:16:17Z</time>
      </trkpt>
      <trkpt lat="44.1343" lon="6.9385">
        <ele>2238.95</ele>
        <time>2018-09-15T13:16:47Z</time>
      </trkpt>
      <trkpt lat="44.13417" lon="6.93856">
        <ele>2234.35</ele>
        <time>2018-09-15T13:17:17Z</time>
      </trkpt>
      <trkpt lat="44.13405" lon="6.93867">
        <ele>2227.92</ele>
        <time>2018-09-15T13:17:47Z</time>
      </trkpt>
      <trkpt lat="44.13392" lon="6.9387">
        <ele>2223.26</ele>
        <time>2018-09-15T13:18:04Z</time>
      </trkpt>
      <trkpt lat="44.13383" lon="6.93876">
        <ele>2217.99</ele>
        <time>2018-09-15T13:18:28Z</time>
      </trkpt>
      <trkpt lat="44.13372" lon="6.9388">
        <ele>2211.69</ele>
        <time>2018-09-15T13:18:50Z</time>
      </trkpt>
      <trkpt lat="44.13361" lon="6.93885">
        <ele>2206.45</ele>
        <time>2018-09-15T13:19:15Z</time>
      </trkpt>
      <trkpt lat="44.1335" lon="6.93884">
        <ele>2200.3</ele>
        <time>2018-09-15T13:19:40Z</time>
      </trkpt>
      <trkpt lat="44.13341" lon="6.9388">
        <ele>2194.26</ele>
        <time>2018-09-15T13:20:05Z</time>
      </trkpt>
      <trkpt lat="44.13332" lon="6.93882">
        <ele>2187.08</ele>
        <time>2018-09-15T13:20:40Z</time>
      </trkpt>
      <trkpt lat="44.13327" lon="6.93893">
        <ele>2184.36</ele>
        <time>2018-09-15T13:20:55Z</time>
      </trkpt>
      <trkpt lat="44.13318" lon="6.93896">
        <ele>2177.98</ele>
        <time>2018-09-15T13:21:39Z</time>
      </trkpt>
      <trkpt lat="44.13309" lon="6.93912">
        <ele>2172.55</ele>
        <time>2018-09-15T13:22:06Z</time>
      </trkpt>
      <trkpt lat="44.13297" lon="6.93924">
        <ele>2166.81</ele>
        <time>2018-09-15T13:22:33Z</time>
      </trkpt>
      <trkpt lat="44.13288" lon="6.93941">
        <ele>2160.69</ele>
        <time>2018-09-15T13:22:57Z</time>
      </trkpt>
      <trkpt lat="44.13279" lon="6.9394">
        <ele>2157.06</ele>
        <time>2018-09-15T13:23:09Z</time>
      </trkpt>
      <trkpt lat="44.13272" lon="6.93949">
        <ele>2153.72</ele>
        <time>2018-09-15T13:23:22Z</time>
      </trkpt>
      <trkpt lat="44.13258" lon="6.93954">
        <ele>2147.85</ele>
        <time>2018-09-15T13:23:46Z</time>
      </trkpt>
      <trkpt lat="44.1325" lon="6.93973">
        <ele>2141.45</ele>
        <time>2018-09-15T13:24:12Z</time>
      </trkpt>
      <trkpt lat="44.13241" lon="6.93985">
        <ele>2135.31</ele>
        <time>2018-09-15T13:24:39Z</time>
      </trkpt>
      <trkpt lat="44.13231" lon="6.93991">
        <ele>2129.52</ele>
        <time>2018-09-15T13:25:04Z</time>
      </trkpt>
      <trkpt lat="44.13228" lon="6.94012">
        <ele>2123.11</ele>
        <time>2018-09-15T13:25:31Z</time>
      </trkpt>
      <trkpt lat="44.13216" lon="6.94024">
        <ele>2116.63</ele>
        <time>2018-09-15T13:25:56Z</time>
      </trkpt>
      <trkpt lat="44.13209" lon="6.94033">
        <ele>2110.35</ele>
        <time>2018-09-15T13:26:47Z</time>
      </trkpt>
      <trkpt lat="44.1319" lon="6.94024">
        <ele>2105.98</ele>
        <time>2018-09-15T13:27:05Z</time>
      </trkpt>
      <trkpt lat="44.1318" lon="6.94021">
        <ele>2102.87</ele>
        <time>2018-09-15T13:27:16Z</time>
      </trkpt>
      <trkpt lat="44.13165" lon="6.94018">
        <ele>2098.05</ele>
        <time>2018-09-15T13:27:30Z</time>
      </trkpt>
      <trkpt lat="44.1315" lon="6.94011">
        <ele>2093.77</ele>
        <time>2018-09-15T13:27:44Z</time>
      </trkpt>
      <trkpt lat="44.13133" lon="6.94013">
        <ele>2089.31</ele>
        <time>2018-09-15T13:28:01Z</time>
      </trkpt>
      <trkpt lat="44.13122" lon="6.94007">
        <ele>2085.36</ele>
        <time>2018-09-15T13:28:22Z</time>
      </trkpt>
      <trkpt lat="44.13111" lon="6.93995">
        <ele>2080.79</ele>
        <time>2018-09-15T13:28:35Z</time>
      </trkpt>
      <trkpt lat="44.13096" lon="6.93981">
        <ele>2074.73</ele>
        <time>2018-09-15T13:28:54Z</time>
      </trkpt>
      <trkpt lat="44.13091" lon="6.93969">
        <ele>2069.13</ele>
        <time>2018-09-15T13:29:08Z</time>
      </trkpt>
      <trkpt lat="44.13083" lon="6.9396">
        <ele>2065.2</ele>
        <time>2018-09-15T13:29:20Z</time>
      </trkpt>
      <trkpt lat="44.13073" lon="6.93953">
        <ele>2058.59</ele>
        <time>2018-09-15T13:29:43Z</time>
      </trkpt>
      <trkpt lat="44.13056" lon="6.93952">
        <ele>2056.51</ele>
        <time>2018-09-15T13:30:29Z</time>
      </trkpt>
      <trkpt lat="44.13042" lon="6.9395">
        <ele>2051.21</ele>
        <time>2018-09-15T13:30:59Z</time>
      </trkpt>
      <trkpt lat="44.13032" lon="6.93947">
        <ele>2047.87</ele>
        <time>2018-09-15T13:31:09Z</time>
      </trkpt>
      <trkpt lat="44.13019" lon="6.9394">
        <ele>2042.46</ele>
        <time>2018-09-15T13:31:26Z</time>
      </trkpt>
      <trkpt lat="44.1301" lon="6.93931">
        <ele>2037.19</ele>
        <time>2018-09-15T13:31:45Z</time>
      </trkpt>
      <trkpt lat="44.13004" lon="6.93917">
        <ele>2030.96</ele>
        <time>2018-09-15T13:32:08Z</time>
      </trkpt>
      <trkpt lat="44.12996" lon="6.93905">
        <ele>2024.82</ele>
        <time>2018-09-15T13:32:28Z</time>
      </trkpt>
      <trkpt lat="44.12987" lon="6.93881">
        <ele>2012.07</ele>
        <time>2018-09-15T13:33:05Z</time>
      </trkpt>
      <trkpt lat="44.1298" lon="6.93871">
        <ele>2005.98</ele>
        <time>2018-09-15T13:33:37Z</time>
      </trkpt>
      <trkpt lat="44.12971" lon="6.93864">
        <ele>2001.99</ele>
        <time>2018-09-15T13:33:52Z</time>
      </trkpt>
      <trkpt lat="44.12982" lon="6.93848">
        <ele>1996.68</ele>
        <time>2018-09-15T13:34:26Z</time>
      </trkpt>
      <trkpt lat="44.12993" lon="6.9384">
        <ele>1993.55</ele>
        <time>2018-09-15T13:34:37Z</time>
      </trkpt>
      <trkpt lat="44.13002" lon="6.93831">
        <ele>1991.01</ele>
        <time>2018-09-15T13:34:46Z</time>
      </trkpt>
      <trkpt lat="44.13021" lon="6.93815">
        <ele>1986.7</ele>
        <time>2018-09-15T13:35:19Z</time>
      </trkpt>
      <trkpt lat="44.13024" lon="6.93794">
        <ele>1984.18</ele>
        <time>2018-09-15T13:35:34Z</time>
      </trkpt>
      <trkpt lat="44.13027" lon="6.93772">
        <ele>1979.08</ele>
        <time>2018-09-15T13:35:56Z</time>
      </trkpt>
      <trkpt lat="44.13028" lon="6.93738">
        <ele>1976.81</ele>
        <time>2018-09-15T13:36:14Z</time>
      </trkpt>
      <trkpt lat="44.13024" lon="6.93721">
        <ele>1976.16</ele>
        <time>2018-09-15T13:36:24Z</time>
      </trkpt>
      <trkpt lat="44.13023" lon="6.93703">
        <ele>1975.74</ele>
        <time>2018-09-15T13:36:45Z</time>
      </trkpt>
      <trkpt lat="44.13015" lon="6.93698">
        <ele>1974.13</ele>
        <time>2018-09-15T13:37:18Z</time>
      </trkpt>
      <trkpt lat="44.13" lon="6.93688">
        <ele>1969.1</ele>
        <time>2018-09-15T13:37:35Z</time>
      </trkpt>
      <trkpt lat="44.12987" lon="6.93683">
        <ele>1964.83</ele>
        <time>2018-09-15T13:37:51Z</time>
      </trkpt>
      <trkpt lat="44.12977" lon="6.93662">
        <ele>1959.44</ele>
        <time>2018-09-15T13:38:19Z</time>
      </trkpt>
      <trkpt lat="44.12966" lon="6.93658">
        <ele>1953.21</ele>
        <time>2018-09-15T13:38:45Z</time>
      </trkpt>
      <trkpt lat="44.12956" lon="6.93683">
        <ele>1948.79</ele>
        <time>2018-09-15T13:39:15Z</time>
      </trkpt>
      <trkpt lat="44.12946" lon="6.9368">
        <ele>1943.78</ele>
        <time>2018-09-15T13:39:43Z</time>
      </trkpt>
      <trkpt lat="44.12947" lon="6.93698">
        <ele>1943.64</ele>
        <time>2018-09-15T13:40:31Z</time>
      </trkpt>
      <trkpt lat="44.12951" lon="6.9371">
        <ele>1943.46</ele>
        <time>2018-09-15T13:40:43Z</time>
      </trkpt>
      <trkpt lat="44.12954" lon="6.93729">
        <ele>1941.92</ele>
        <time>2018-09-15T13:40:55Z</time>
      </trkpt>
      <trkpt lat="44.12949" lon="6.9374">
        <ele>1942.01</ele>
        <time>2018-09-15T13:41:08Z</time>
      </trkpt>
      <trkpt lat="44.12941" lon="6.93747">
        <ele>1941.05</ele>
        <time>2018-09-15T13:41:16Z</time>
      </trkpt>
      <trkpt lat="44.12938" lon="6.93765">
        <ele>1940.84</ele>
        <time>2018-09-15T13:41:30Z</time>
      </trkpt>
      <trkpt lat="44.12929" lon="6.93774">
        <ele>1943.38</ele>
        <time>2018-09-15T13:42:05Z</time>
      </trkpt>
      <trkpt lat="44.12919" lon="6.93773">
        <ele>1941.81</ele>
        <time>2018-09-15T13:42:29Z</time>
      </trkpt>
      <trkpt lat="44.1291" lon="6.9377">
        <ele>1941</ele>
        <time>2018-09-15T13:42:39Z</time>
      </trkpt>
      <trkpt lat="44.12899" lon="6.93768">
        <ele>1939.2</ele>
        <time>2018-09-15T13:42:50Z</time>
      </trkpt>
      <trkpt lat="44.12883" lon="6.93771">
        <ele>1935.83</ele>
        <time>2018-09-15T13:43:08Z</time>
      </trkpt>
      <trkpt lat="44.12872" lon="6.93771">
        <ele>1933.96</ele>
        <time>2018-09-15T13:43:19Z</time>
      </trkpt>
      <trkpt lat="44.12856" lon="6.93762">
        <ele>1929.96</ele>
        <time>2018-09-15T13:43:40Z</time>
      </trkpt>
      <trkpt lat="44.12845" lon="6.93773">
        <ele>1926.54</ele>
        <time>2018-09-15T13:43:57Z</time>
      </trkpt>
      <trkpt lat="44.12832" lon="6.93781">
        <ele>1922.88</ele>
        <time>2018-09-15T13:44:28Z</time>
      </trkpt>
      <trkpt lat="44.12821" lon="6.93781">
        <ele>1920.76</ele>
        <time>2018-09-15T13:44:37Z</time>
      </trkpt>
      <trkpt lat="44.12803" lon="6.93775">
        <ele>1916.36</ele>
        <time>2018-09-15T13:44:54Z</time>
      </trkpt>
      <trkpt lat="44.12787" lon="6.93765">
        <ele>1912.88</ele>
        <time>2018-09-15T13:45:11Z</time>
      </trkpt>
      <trkpt lat="44.12771" lon="6.93762">
        <ele>1909.23</ele>
        <time>2018-09-15T13:46:30Z</time>
      </trkpt>
      <trkpt lat="44.12761" lon="6.93756">
        <ele>1906.69</ele>
        <time>2018-09-15T13:46:41Z</time>
      </trkpt>
      <trkpt lat="44.12751" lon="6.93753">
        <ele>1903.27</ele>
        <time>2018-09-15T13:46:53Z</time>
      </trkpt>
      <trkpt lat="44.12732" lon="6.93743">
        <ele>1897.63</ele>
        <time>2018-09-15T13:47:17Z</time>
      </trkpt>
      <trkpt lat="44.12722" lon="6.9374">
        <ele>1895.23</ele>
        <time>2018-09-15T13:47:27Z</time>
      </trkpt>
      <trkpt lat="44.12708" lon="6.9374">
        <ele>1892.45</ele>
        <time>2018-09-15T13:47:41Z</time>
      </trkpt>
      <trkpt lat="44.12698" lon="6.9374">
        <ele>1889.25</ele>
        <time>2018-09-15T13:47:55Z</time>
      </trkpt>
      <trkpt lat="44.12686" lon="6.93739">
        <ele>1885.61</ele>
        <time>2018-09-15T13:48:23Z</time>
      </trkpt>
      <trkpt lat="44.12676" lon="6.93736">
        <ele>1883.5</ele>
        <time>2018-09-15T13:48:36Z</time>
      </trkpt>
      <trkpt lat="44.12667" lon="6.9373">
        <ele>1879.98</ele>
        <time>2018-09-15T13:48:51Z</time>
      </trkpt>
      <trkpt lat="44.1265" lon="6.9372">
        <ele>1874.72</ele>
        <time>2018-09-15T13:49:14Z</time>
      </trkpt>
      <trkpt lat="44.12638" lon="6.9372">
        <ele>1871.32</ele>
        <time>2018-09-15T13:49:46Z</time>
      </trkpt>
      <trkpt lat="44.12628" lon="6.93717">
        <ele>1869.16</ele>
        <time>2018-09-15T13:49:58Z</time>
      </trkpt>
      <trkpt lat="44.12613" lon="6.93715">
        <ele>1865.69</ele>
        <time>2018-09-15T13:50:11Z</time>
      </trkpt>
      <trkpt lat="44.12603" lon="6.93714">
        <ele>1863.51</ele>
        <time>2018-09-15T13:50:21Z</time>
      </trkpt>
      <trkpt lat="44.12589" lon="6.93717">
        <ele>1862.7</ele>
        <time>2018-09-15T13:50:34Z</time>
      </trkpt>
      <trkpt lat="44.12579" lon="6.93717">
        <ele>1861.68</ele>
        <time>2018-09-15T13:50:47Z</time>
      </trkpt>
      <trkpt lat="44.12565" lon="6.93722">
        <ele>1861.24</ele>
        <time>2018-09-15T13:51:05Z</time>
      </trkpt>
      <trkpt lat="44.12548" lon="6.93715">
        <ele>1855.32</ele>
        <time>2018-09-15T13:51:32Z</time>
      </trkpt>
      <trkpt lat="44.12529" lon="6.93712">
        <ele>1852.76</ele>
        <time>2018-09-15T13:51:45Z</time>
      </trkpt>
      <trkpt lat="44.12519" lon="6.93716">
        <ele>1850</ele>
        <time>2018-09-15T13:52:15Z</time>
      </trkpt>
      <trkpt lat="44.1251" lon="6.9372">
        <ele>1847.26</ele>
        <time>2018-09-15T13:52:31Z</time>
      </trkpt>
      <trkpt lat="44.12498" lon="6.93716">
        <ele>1843.25</ele>
        <time>2018-09-15T13:52:53Z</time>
      </trkpt>
      <trkpt lat="44.12485" lon="6.93713">
        <ele>1839.82</ele>
        <time>2018-09-15T13:53:06Z</time>
      </trkpt>
      <trkpt lat="44.12474" lon="6.93709">
        <ele>1835.99</ele>
        <time>2018-09-15T13:53:17Z</time>
      </trkpt>
      <trkpt lat="44.12464" lon="6.93709">
        <ele>1832.85</ele>
        <time>2018-09-15T13:53:28Z</time>
      </trkpt>
      <trkpt lat="44.12458" lon="6.93699">
        <ele>1829.59</ele>
        <time>2018-09-15T13:53:39Z</time>
      </trkpt>
      <trkpt lat="44.12444" lon="6.93695">
        <ele>1823.44</ele>
        <time>2018-09-15T13:54:05Z</time>
      </trkpt>
      <trkpt lat="44.12431" lon="6.93685">
        <ele>1817.22</ele>
        <time>2018-09-15T13:54:30Z</time>
      </trkpt>
      <trkpt lat="44.12417" lon="6.93673">
        <ele>1810.85</ele>
        <time>2018-09-15T13:54:56Z</time>
      </trkpt>
      <trkpt lat="44.12407" lon="6.93667">
        <ele>1806.13</ele>
        <time>2018-09-15T13:55:16Z</time>
      </trkpt>
      <trkpt lat="44.12391" lon="6.93657">
        <ele>1799.89</ele>
        <time>2018-09-15T13:55:44Z</time>
      </trkpt>
      <trkpt lat="44.1238" lon="6.93649">
        <ele>1793.55</ele>
        <time>2018-09-15T13:56:10Z</time>
      </trkpt>
      <trkpt lat="44.12363" lon="6.93642">
        <ele>1786.89</ele>
        <time>2018-09-15T13:56:37Z</time>
      </trkpt>
      <trkpt lat="44.12367" lon="6.93626">
        <ele>1782.1</ele>
        <time>2018-09-15T13:57:03Z</time>
      </trkpt>
      <trkpt lat="44.12365" lon="6.93611">
        <ele>1777.38</ele>
        <time>2018-09-15T13:57:30Z</time>
      </trkpt>
      <trkpt lat="44.12368" lon="6.93599">
        <ele>1771.04</ele>
        <time>2018-09-15T13:57:50Z</time>
      </trkpt>
      <trkpt lat="44.12363" lon="6.93588">
        <ele>1765</ele>
        <time>2018-09-15T13:58:27Z</time>
      </trkpt>
      <trkpt lat="44.12373" lon="6.93579">
        <ele>1760.67</ele>
        <time>2018-09-15T14:05:10Z</time>
      </trkpt>
      <trkpt lat="44.12397" lon="6.93571">
        <ele>1758.53</ele>
        <time>2018-09-15T14:05:26Z</time>
      </trkpt>
      <trkpt lat="44.12409" lon="6.93557">
        <ele>1756.16</ele>
        <time>2018-09-15T14:05:38Z</time>
      </trkpt>
      <trkpt lat="44.12418" lon="6.93549">
        <ele>1754.75</ele>
        <time>2018-09-15T14:05:44Z</time>
      </trkpt>
      <trkpt lat="44.1244" lon="6.93535">
        <ele>1751.69</ele>
        <time>2018-09-15T14:05:59Z</time>
      </trkpt>
      <trkpt lat="44.12453" lon="6.93526">
        <ele>1749.03</ele>
        <time>2018-09-15T14:06:11Z</time>
      </trkpt>
      <trkpt lat="44.12464" lon="6.93524">
        <ele>1747.88</ele>
        <time>2018-09-15T14:06:18Z</time>
      </trkpt>
      <trkpt lat="44.12475" lon="6.9352">
        <ele>1746.91</ele>
        <time>2018-09-15T14:06:25Z</time>
      </trkpt>
      <trkpt lat="44.12489" lon="6.93502">
        <ele>1745.39</ele>
        <time>2018-09-15T14:06:37Z</time>
      </trkpt>
      <trkpt lat="44.125" lon="6.93485">
        <ele>1744.48</ele>
        <time>2018-09-15T14:06:47Z</time>
      </trkpt>
      <trkpt lat="44.12511" lon="6.93462">
        <ele>1743.26</ele>
        <time>2018-09-15T14:06:59Z</time>
      </trkpt>
      <trkpt lat="44.12517" lon="6.9345">
        <ele>1742.59</ele>
        <time>2018-09-15T14:07:07Z</time>
      </trkpt>
      <trkpt lat="44.12544" lon="6.93434">
        <ele>1740.68</ele>
        <time>2018-09-15T14:07:24Z</time>
      </trkpt>
      <trkpt lat="44.12557" lon="6.93424">
        <ele>1739.79</ele>
        <time>2018-09-15T14:07:34Z</time>
      </trkpt>
      <trkpt lat="44.12578" lon="6.93407">
        <ele>1738.1</ele>
        <time>2018-09-15T14:07:50Z</time>
      </trkpt>
      <trkpt lat="44.12593" lon="6.93384">
        <ele>1736.92</ele>
        <time>2018-09-15T14:08:05Z</time>
      </trkpt>
      <trkpt lat="44.12604" lon="6.93377">
        <ele>1736.23</ele>
        <time>2018-09-15T14:08:14Z</time>
      </trkpt>
      <trkpt lat="44.1263" lon="6.93385">
        <ele>1734.31</ele>
        <time>2018-09-15T14:08:31Z</time>
      </trkpt>
      <trkpt lat="44.12643" lon="6.93361">
        <ele>1733.68</ele>
        <time>2018-09-15T14:08:51Z</time>
      </trkpt>
      <trkpt lat="44.12649" lon="6.93342">
        <ele>1734.32</ele>
        <time>2018-09-15T14:09:07Z</time>
      </trkpt>
      <trkpt lat="44.12661" lon="6.9331">
        <ele>1736.78</ele>
        <time>2018-09-15T14:09:26Z</time>
      </trkpt>
      <trkpt lat="44.12672" lon="6.9329">
        <ele>1739.06</ele>
        <time>2018-09-15T14:09:40Z</time>
      </trkpt>
      <trkpt lat="44.12678" lon="6.93263">
        <ele>1741.19</ele>
        <time>2018-09-15T14:09:54Z</time>
      </trkpt>
      <trkpt lat="44.12692" lon="6.9324">
        <ele>1743.2</ele>
        <time>2018-09-15T14:10:09Z</time>
      </trkpt>
      <trkpt lat="44.12701" lon="6.93227">
        <ele>1744.94</ele>
        <time>2018-09-15T14:10:22Z</time>
      </trkpt>
      <trkpt lat="44.12719" lon="6.93203">
        <ele>1747.12</ele>
        <time>2018-09-15T14:10:40Z</time>
      </trkpt>
      <trkpt lat="44.12721" lon="6.93188">
        <ele>1747.92</ele>
        <time>2018-09-15T14:10:47Z</time>
      </trkpt>
      <trkpt lat="44.12702" lon="6.93177">
        <ele>1749.51</ele>
        <time>2018-09-15T14:11:05Z</time>
      </trkpt>
      <trkpt lat="44.12685" lon="6.93172">
        <ele>1751.1</ele>
        <time>2018-09-15T14:11:19Z</time>
      </trkpt>
      <trkpt lat="44.12684" lon="6.93158">
        <ele>1752.98</ele>
        <time>2018-09-15T14:11:33Z</time>
      </trkpt>
      <trkpt lat="44.12689" lon="6.93122">
        <ele>1755.46</ele>
        <time>2018-09-15T14:12:00Z</time>
      </trkpt>
      <trkpt lat="44.12701" lon="6.93098">
        <ele>1756.49</ele>
        <time>2018-09-15T14:12:15Z</time>
      </trkpt>
      <trkpt lat="44.12703" lon="6.93085">
        <ele>1756.17</ele>
        <time>2018-09-15T14:13:20Z</time>
      </trkpt>
      <trkpt lat="44.12705" lon="6.93051">
        <ele>1755.28</ele>
        <time>2018-09-15T14:13:38Z</time>
      </trkpt>
      <trkpt lat="44.12711" lon="6.93024">
        <ele>1754.23</ele>
        <time>2018-09-15T14:13:51Z</time>
      </trkpt>
      <trkpt lat="44.12726" lon="6.92988">
        <ele>1752.69</ele>
        <time>2018-09-15T14:14:08Z</time>
      </trkpt>
      <trkpt lat="44.12727" lon="6.92973">
        <ele>1752.22</ele>
        <time>2018-09-15T14:14:15Z</time>
      </trkpt>
      <trkpt lat="44.1271" lon="6.92961">
        <ele>1751.38</ele>
        <time>2018-09-15T14:14:28Z</time>
      </trkpt>
      <trkpt lat="44.12697" lon="6.92942">
        <ele>1752.03</ele>
        <time>2018-09-15T14:14:43Z</time>
      </trkpt>
      <trkpt lat="44.12692" lon="6.92912">
        <ele>1754.77</ele>
        <time>2018-09-15T14:14:58Z</time>
      </trkpt>
      <trkpt lat="44.12709" lon="6.92889">
        <ele>1756.63</ele>
        <time>2018-09-15T14:15:12Z</time>
      </trkpt>
      <trkpt lat="44.12709" lon="6.92861">
        <ele>1757.25</ele>
        <time>2018-09-15T14:15:29Z</time>
      </trkpt>
      <trkpt lat="44.12712" lon="6.92849">
        <ele>1757.65</ele>
        <time>2018-09-15T14:15:35Z</time>
      </trkpt>
      <trkpt lat="44.12734" lon="6.92805">
        <ele>1761.34</ele>
        <time>2018-09-15T14:16:02Z</time>
      </trkpt>
      <trkpt lat="44.12748" lon="6.92784">
        <ele>1763.66</ele>
        <time>2018-09-15T14:16:19Z</time>
      </trkpt>
      <trkpt lat="44.1276" lon="6.92763">
        <ele>1766.02</ele>
        <time>2018-09-15T14:16:34Z</time>
      </trkpt>
      <trkpt lat="44.1278" lon="6.92738">
        <ele>1769.12</ele>
        <time>2018-09-15T14:16:53Z</time>
      </trkpt>
      <trkpt lat="44.12796" lon="6.9272">
        <ele>1770.83</ele>
        <time>2018-09-15T14:17:09Z</time>
      </trkpt>
      <trkpt lat="44.12808" lon="6.92718">
        <ele>1771.85</ele>
        <time>2018-09-15T14:17:21Z</time>
      </trkpt>
      <trkpt lat="44.12824" lon="6.92713">
        <ele>1772.24</ele>
        <time>2018-09-15T14:17:40Z</time>
      </trkpt>
      <trkpt lat="44.1284" lon="6.92701">
        <ele>1774.82</ele>
        <time>2018-09-15T14:17:57Z</time>
      </trkpt>
      <trkpt lat="44.1285" lon="6.92705">
        <ele>1775.31</ele>
        <time>2018-09-15T14:18:04Z</time>
      </trkpt>
      <trkpt lat="44.12874" lon="6.92704">
        <ele>1777.17</ele>
        <time>2018-09-15T14:18:23Z</time>
      </trkpt>
      <trkpt lat="44.12887" lon="6.9269">
        <ele>1777.63</ele>
        <time>2018-09-15T14:18:40Z</time>
      </trkpt>
      <trkpt lat="44.12882" lon="6.92668">
        <ele>1780.92</ele>
        <time>2018-09-15T14:18:56Z</time>
      </trkpt>
      <trkpt lat="44.12889" lon="6.92651">
        <ele>1782.7</ele>
        <time>2018-09-15T14:19:07Z</time>
      </trkpt>
      <trkpt lat="44.12905" lon="6.92634">
        <ele>1783.4</ele>
        <time>2018-09-15T14:19:21Z</time>
      </trkpt>
      <trkpt lat="44.12919" lon="6.92617">
        <ele>1784.66</ele>
        <time>2018-09-15T14:19:34Z</time>
      </trkpt>
      <trkpt lat="44.1294" lon="6.92605">
        <ele>1786.47</ele>
        <time>2018-09-15T14:19:50Z</time>
      </trkpt>
      <trkpt lat="44.12966" lon="6.92595">
        <ele>1789.04</ele>
        <time>2018-09-15T14:20:11Z</time>
      </trkpt>
      <trkpt lat="44.12973" lon="6.92602">
        <ele>1789.59</ele>
        <time>2018-09-15T14:20:19Z</time>
      </trkpt>
      <trkpt lat="44.12987" lon="6.92592">
        <ele>1791.01</ele>
        <time>2018-09-15T14:20:32Z</time>
      </trkpt>
      <trkpt lat="44.13002" lon="6.92568">
        <ele>1792.64</ele>
        <time>2018-09-15T14:20:48Z</time>
      </trkpt>
      <trkpt lat="44.13011" lon="6.92556">
        <ele>1793.11</ele>
        <time>2018-09-15T14:20:59Z</time>
      </trkpt>
      <trkpt lat="44.13026" lon="6.92542">
        <ele>1794.69</ele>
        <time>2018-09-15T14:21:12Z</time>
      </trkpt>
      <trkpt lat="44.13033" lon="6.92533">
        <ele>1794.83</ele>
        <time>2018-09-15T14:21:20Z</time>
      </trkpt>
      <trkpt lat="44.13043" lon="6.92522">
        <ele>1794.88</ele>
        <time>2018-09-15T14:21:30Z</time>
      </trkpt>
      <trkpt lat="44.13067" lon="6.92515">
        <ele>1797.84</ele>
        <time>2018-09-15T14:22:04Z</time>
      </trkpt>
      <trkpt lat="44.13077" lon="6.92514">
        <ele>1798.08</ele>
        <time>2018-09-15T14:23:03Z</time>
      </trkpt>
      <trkpt lat="44.13088" lon="6.92509">
        <ele>1798.52</ele>
        <time>2018-09-15T14:23:12Z</time>
      </trkpt>
      <trkpt lat="44.13105" lon="6.92501">
        <ele>1800.4</ele>
        <time>2018-09-15T14:23:26Z</time>
      </trkpt>
      <trkpt lat="44.13128" lon="6.92492">
        <ele>1802.96</ele>
        <time>2018-09-15T14:23:46Z</time>
      </trkpt>
      <trkpt lat="44.13141" lon="6.92498">
        <ele>1804.81</ele>
        <time>2018-09-15T14:23:57Z</time>
      </trkpt>
      <trkpt lat="44.13148" lon="6.92507">
        <ele>1805.97</ele>
        <time>2018-09-15T14:24:04Z</time>
      </trkpt>
      <trkpt lat="44.13159" lon="6.92516">
        <ele>1807.42</ele>
        <time>2018-09-15T14:24:15Z</time>
      </trkpt>
      <trkpt lat="44.13174" lon="6.92526">
        <ele>1807.79</ele>
        <time>2018-09-15T14:24:27Z</time>
      </trkpt>
      <trkpt lat="44.13187" lon="6.92526">
        <ele>1807.73</ele>
        <time>2018-09-15T14:24:38Z</time>
      </trkpt>
      <trkpt lat="44.13201" lon="6.92533">
        <ele>1808.21</ele>
        <time>2018-09-15T14:24:49Z</time>
      </trkpt>
      <trkpt lat="44.1322" lon="6.92534">
        <ele>1808.35</ele>
        <time>2018-09-15T14:25:01Z</time>
      </trkpt>
      <trkpt lat="44.13231" lon="6.92533">
        <ele>1808.85</ele>
        <time>2018-09-15T14:25:10Z</time>
      </trkpt>
      <trkpt lat="44.13247" lon="6.92522">
        <ele>1808.37</ele>
        <time>2018-09-15T14:25:23Z</time>
      </trkpt>
      <trkpt lat="44.13261" lon="6.92505">
        <ele>1808.3</ele>
        <time>2018-09-15T14:25:39Z</time>
      </trkpt>
      <trkpt lat="44.13275" lon="6.92505">
        <ele>1809.1</ele>
        <time>2018-09-15T14:26:01Z</time>
      </trkpt>
      <trkpt lat="44.13296" lon="6.92505">
        <ele>1809.69</ele>
        <time>2018-09-15T14:26:17Z</time>
      </trkpt>
      <trkpt lat="44.13313" lon="6.92507">
        <ele>1810.97</ele>
        <time>2018-09-15T14:26:28Z</time>
      </trkpt>
      <trkpt lat="44.13344" lon="6.92506">
        <ele>1810.07</ele>
        <time>2018-09-15T14:26:49Z</time>
      </trkpt>
      <trkpt lat="44.13378" lon="6.92512">
        <ele>1810.07</ele>
        <time>2018-09-15T14:27:10Z</time>
      </trkpt>
      <trkpt lat="44.13402" lon="6.9252">
        <ele>1810.57</ele>
        <time>2018-09-15T14:27:24Z</time>
      </trkpt>
      <trkpt lat="44.13424" lon="6.92524">
        <ele>1810.97</ele>
        <time>2018-09-15T14:27:39Z</time>
      </trkpt>
      <trkpt lat="44.13442" lon="6.92529">
        <ele>1811.05</ele>
        <time>2018-09-15T14:27:52Z</time>
      </trkpt>
      <trkpt lat="44.13453" lon="6.92529">
        <ele>1810.91</ele>
        <time>2018-09-15T14:28:00Z</time>
      </trkpt>
      <trkpt lat="44.13476" lon="6.92539">
        <ele>1810.27</ele>
        <time>2018-09-15T14:28:15Z</time>
      </trkpt>
      <trkpt lat="44.13495" lon="6.92544">
        <ele>1811.09</ele>
        <time>2018-09-15T14:28:29Z</time>
      </trkpt>
      <trkpt lat="44.13505" lon="6.92548">
        <ele>1811.74</ele>
        <time>2018-09-15T14:28:37Z</time>
      </trkpt>
      <trkpt lat="44.13518" lon="6.9256">
        <ele>1811.36</ele>
        <time>2018-09-15T14:28:50Z</time>
      </trkpt>
      <trkpt lat="44.13537" lon="6.92557">
        <ele>1810.77</ele>
        <time>2018-09-15T14:29:07Z</time>
      </trkpt>
      <trkpt lat="44.13546" lon="6.92564">
        <ele>1809.54</ele>
        <time>2018-09-15T14:29:26Z</time>
      </trkpt>
      <trkpt lat="44.13561" lon="6.92584">
        <ele>1805.41</ele>
        <time>2018-09-15T14:29:44Z</time>
      </trkpt>
      <trkpt lat="44.13574" lon="6.92589">
        <ele>1799.74</ele>
        <time>2018-09-15T14:30:14Z</time>
      </trkpt>
      <trkpt lat="44.13587" lon="6.92568">
        <ele>1799.61</ele>
        <time>2018-09-15T14:30:42Z</time>
      </trkpt>
      <trkpt lat="44.13599" lon="6.92561">
        <ele>1800.51</ele>
        <time>2018-09-15T14:30:55Z</time>
      </trkpt>
      <trkpt lat="44.13608" lon="6.92555">
        <ele>1800.81</ele>
        <time>2018-09-15T14:31:04Z</time>
      </trkpt>
      <trkpt lat="44.1362" lon="6.92543">
        <ele>1801.8</ele>
        <time>2018-09-15T14:31:16Z</time>
      </trkpt>
      <trkpt lat="44.13626" lon="6.9253">
        <ele>1801.17</ele>
        <time>2018-09-15T14:31:33Z</time>
      </trkpt>
      <trkpt lat="44.13636" lon="6.92536">
        <ele>1796.78</ele>
        <time>2018-09-15T14:31:57Z</time>
      </trkpt>
      <trkpt lat="44.13644" lon="6.9256">
        <ele>1793.62</ele>
        <time>2018-09-15T14:32:11Z</time>
      </trkpt>
      <trkpt lat="44.13653" lon="6.92567">
        <ele>1792.6</ele>
        <time>2018-09-15T14:32:21Z</time>
      </trkpt>
      <trkpt lat="44.13669" lon="6.9257">
        <ele>1793.52</ele>
        <time>2018-09-15T14:32:33Z</time>
      </trkpt>
      <trkpt lat="44.13682" lon="6.92581">
        <ele>1792.52</ele>
        <time>2018-09-15T14:32:46Z</time>
      </trkpt>
      <trkpt lat="44.13702" lon="6.92561">
        <ele>1792.02</ele>
        <time>2018-09-15T14:33:05Z</time>
      </trkpt>
      <trkpt lat="44.13715" lon="6.92547">
        <ele>1793.81</ele>
        <time>2018-09-15T14:33:20Z</time>
      </trkpt>
      <trkpt lat="44.13725" lon="6.9255">
        <ele>1794.08</ele>
        <time>2018-09-15T14:33:27Z</time>
      </trkpt>
      <trkpt lat="44.13735" lon="6.92546">
        <ele>1793.72</ele>
        <time>2018-09-15T14:33:34Z</time>
      </trkpt>
      <trkpt lat="44.13742" lon="6.92538">
        <ele>1793.34</ele>
        <time>2018-09-15T14:33:41Z</time>
      </trkpt>
      <trkpt lat="44.13764" lon="6.92535">
        <ele>1792.37</ele>
        <time>2018-09-15T14:33:59Z</time>
      </trkpt>
      <trkpt lat="44.13775" lon="6.92543">
        <ele>1790.49</ele>
        <time>2018-09-15T14:34:12Z</time>
      </trkpt>
      <trkpt lat="44.13785" lon="6.92551">
        <ele>1789</ele>
        <time>2018-09-15T14:34:21Z</time>
      </trkpt>
      <trkpt lat="44.13794" lon="6.9255">
        <ele>1786.79</ele>
        <time>2018-09-15T14:34:34Z</time>
      </trkpt>
      <trkpt lat="44.13802" lon="6.92542">
        <ele>1784.52</ele>
        <time>2018-09-15T14:34:49Z</time>
      </trkpt>
      <trkpt lat="44.13811" lon="6.92524">
        <ele>1775.57</ele>
        <time>2018-09-15T14:35:31Z</time>
      </trkpt>
      <trkpt lat="44.13828" lon="6.92519">
        <ele>1772.17</ele>
        <time>2018-09-15T14:35:44Z</time>
      </trkpt>
      <trkpt lat="44.13839" lon="6.92518">
        <ele>1768.95</ele>
        <time>2018-09-15T14:35:54Z</time>
      </trkpt>
      <trkpt lat="44.13855" lon="6.9252">
        <ele>1765.53</ele>
        <time>2018-09-15T14:36:06Z</time>
      </trkpt>
      <trkpt lat="44.13876" lon="6.92509">
        <ele>1754.65</ele>
        <time>2018-09-15T14:36:52Z</time>
      </trkpt>
      <trkpt lat="44.13892" lon="6.92503">
        <ele>1748.64</ele>
        <time>2018-09-15T14:37:21Z</time>
      </trkpt>
      <trkpt lat="44.13902" lon="6.92493">
        <ele>1745.27</ele>
        <time>2018-09-15T14:37:33Z</time>
      </trkpt>
      <trkpt lat="44.13912" lon="6.92479">
        <ele>1742.21</ele>
        <time>2018-09-15T14:37:42Z</time>
      </trkpt>
      <trkpt lat="44.13922" lon="6.92462">
        <ele>1738.38</ele>
        <time>2018-09-15T14:37:52Z</time>
      </trkpt>
      <trkpt lat="44.13934" lon="6.92437">
        <ele>1734.52</ele>
        <time>2018-09-15T14:38:10Z</time>
      </trkpt>
      <trkpt lat="44.13929" lon="6.92425">
        <ele>1730.1</ele>
        <time>2018-09-15T14:38:24Z</time>
      </trkpt>
      <trkpt lat="44.1393" lon="6.92412">
        <ele>1727.4</ele>
        <time>2018-09-15T14:38:35Z</time>
      </trkpt>
      <trkpt lat="44.1393" lon="6.92397">
        <ele>1724.29</ele>
        <time>2018-09-15T14:38:45Z</time>
      </trkpt>
      <trkpt lat="44.13928" lon="6.92382">
        <ele>1720.92</ele>
        <time>2018-09-15T14:38:56Z</time>
      </trkpt>
      <trkpt lat="44.13922" lon="6.92372">
        <ele>1718.26</ele>
        <time>2018-09-15T14:39:06Z</time>
      </trkpt>
      <trkpt lat="44.1391" lon="6.92362">
        <ele>1715.23</ele>
        <time>2018-09-15T14:39:19Z</time>
      </trkpt>
      <trkpt lat="44.1391" lon="6.92346">
        <ele>1712.59</ele>
        <time>2018-09-15T14:39:35Z</time>
      </trkpt>
      <trkpt lat="44.1391" lon="6.9233">
        <ele>1710.9</ele>
        <time>2018-09-15T14:39:44Z</time>
      </trkpt>
      <trkpt lat="44.13907" lon="6.92305">
        <ele>1707.03</ele>
        <time>2018-09-15T14:39:59Z</time>
      </trkpt>
      <trkpt lat="44.13907" lon="6.9229">
        <ele>1704.63</ele>
        <time>2018-09-15T14:40:08Z</time>
      </trkpt>
      <trkpt lat="44.13904" lon="6.92272">
        <ele>1701.38</ele>
        <time>2018-09-15T14:40:19Z</time>
      </trkpt>
      <trkpt lat="44.13891" lon="6.92271">
        <ele>1697.58</ele>
        <time>2018-09-15T14:40:37Z</time>
      </trkpt>
      <trkpt lat="44.13876" lon="6.9225">
        <ele>1693.87</ele>
        <time>2018-09-15T14:40:57Z</time>
      </trkpt>
      <trkpt lat="44.13869" lon="6.92236">
        <ele>1690.9</ele>
        <time>2018-09-15T14:41:09Z</time>
      </trkpt>
      <trkpt lat="44.13861" lon="6.92224">
        <ele>1688.13</ele>
        <time>2018-09-15T14:41:22Z</time>
      </trkpt>
      <trkpt lat="44.13853" lon="6.92212">
        <ele>1685.95</ele>
        <time>2018-09-15T14:41:34Z</time>
      </trkpt>
      <trkpt lat="44.13838" lon="6.92204">
        <ele>1682.01</ele>
        <time>2018-09-15T14:41:48Z</time>
      </trkpt>
      <trkpt lat="44.1382" lon="6.92199">
        <ele>1678.61</ele>
        <time>2018-09-15T14:42:02Z</time>
      </trkpt>
      <trkpt lat="44.13798" lon="6.92195">
        <ele>1674.95</ele>
        <time>2018-09-15T14:42:28Z</time>
      </trkpt>
      <trkpt lat="44.13783" lon="6.92192">
        <ele>1671.71</ele>
        <time>2018-09-15T14:42:41Z</time>
      </trkpt>
      <trkpt lat="44.13777" lon="6.92179">
        <ele>1665.23</ele>
        <time>2018-09-15T14:43:05Z</time>
      </trkpt>
      <trkpt lat="44.13766" lon="6.92167">
        <ele>1659.19</ele>
        <time>2018-09-15T14:43:31Z</time>
      </trkpt>
      <trkpt lat="44.13761" lon="6.92154">
        <ele>1654.31</ele>
        <time>2018-09-15T14:43:51Z</time>
      </trkpt>
      <trkpt lat="44.13764" lon="6.92138">
        <ele>1650.18</ele>
        <time>2018-09-15T14:44:09Z</time>
      </trkpt>
      <trkpt lat="44.13763" lon="6.92124">
        <ele>1647.99</ele>
        <time>2018-09-15T14:44:21Z</time>
      </trkpt>
      <trkpt lat="44.13759" lon="6.92109">
        <ele>1644.9</ele>
        <time>2018-09-15T14:44:33Z</time>
      </trkpt>
      <trkpt lat="44.13745" lon="6.92108">
        <ele>1641.68</ele>
        <time>2018-09-15T14:44:47Z</time>
      </trkpt>
      <trkpt lat="44.1373" lon="6.92114">
        <ele>1636.48</ele>
        <time>2018-09-15T14:45:11Z</time>
      </trkpt>
      <trkpt lat="44.13717" lon="6.92132">
        <ele>1630.23</ele>
        <time>2018-09-15T14:45:35Z</time>
      </trkpt>
      <trkpt lat="44.13709" lon="6.92114">
        <ele>1625.35</ele>
        <time>2018-09-15T14:45:58Z</time>
      </trkpt>
      <trkpt lat="44.13711" lon="6.92099">
        <ele>1622.71</ele>
        <time>2018-09-15T14:46:13Z</time>
      </trkpt>
      <trkpt lat="44.13711" lon="6.92081">
        <ele>1620.2</ele>
        <time>2018-09-15T14:46:24Z</time>
      </trkpt>
      <trkpt lat="44.1372" lon="6.92055">
        <ele>1616.29</ele>
        <time>2018-09-15T14:46:43Z</time>
      </trkpt>
      <trkpt lat="44.13731" lon="6.9204">
        <ele>1612.11</ele>
        <time>2018-09-15T14:47:03Z</time>
      </trkpt>
      <trkpt lat="44.1373" lon="6.92025">
        <ele>1608.97</ele>
        <time>2018-09-15T14:47:15Z</time>
      </trkpt>
      <trkpt lat="44.1372" lon="6.91999">
        <ele>1598.28</ele>
        <time>2018-09-15T14:48:05Z</time>
      </trkpt>
      <trkpt lat="44.13726" lon="6.91986">
        <ele>1595.68</ele>
        <time>2018-09-15T14:48:17Z</time>
      </trkpt>
      <trkpt lat="44.13716" lon="6.91971">
        <ele>1590.21</ele>
        <time>2018-09-15T14:48:45Z</time>
      </trkpt>
      <trkpt lat="44.13713" lon="6.91956">
        <ele>1589.44</ele>
        <time>2018-09-15T14:48:55Z</time>
      </trkpt>
      <trkpt lat="44.1371" lon="6.91941">
        <ele>1588.95</ele>
        <time>2018-09-15T14:49:04Z</time>
      </trkpt>
      <trkpt lat="44.13708" lon="6.91926">
        <ele>1589.68</ele>
        <time>2018-09-15T14:49:14Z</time>
      </trkpt>
      <trkpt lat="44.13719" lon="6.91913">
        <ele>1589.6</ele>
        <time>2018-09-15T14:49:26Z</time>
      </trkpt>
      <trkpt lat="44.13724" lon="6.91893">
        <ele>1587.63</ele>
        <time>2018-09-15T14:49:38Z</time>
      </trkpt>
      <trkpt lat="44.13719" lon="6.91876">
        <ele>1585.06</ele>
        <time>2018-09-15T14:49:50Z</time>
      </trkpt>
      <trkpt lat="44.13718" lon="6.91863">
        <ele>1582.56</ele>
        <time>2018-09-15T14:49:58Z</time>
      </trkpt>
      <trkpt lat="44.13707" lon="6.91841">
        <ele>1578.43</ele>
        <time>2018-09-15T14:50:15Z</time>
      </trkpt>
      <trkpt lat="44.13712" lon="6.91815">
        <ele>1577.1</ele>
        <time>2018-09-15T14:50:30Z</time>
      </trkpt>
      <trkpt lat="44.13705" lon="6.91797">
        <ele>1575.32</ele>
        <time>2018-09-15T14:50:42Z</time>
      </trkpt>
      <trkpt lat="44.13693" lon="6.91782">
        <ele>1572.35</ele>
        <time>2018-09-15T14:50:55Z</time>
      </trkpt>
      <trkpt lat="44.13681" lon="6.91767">
        <ele>1569.52</ele>
        <time>2018-09-15T14:51:08Z</time>
      </trkpt>
      <trkpt lat="44.13667" lon="6.91755">
        <ele>1567.04</ele>
        <time>2018-09-15T14:51:21Z</time>
      </trkpt>
      <trkpt lat="44.13658" lon="6.91744">
        <ele>1565.36</ele>
        <time>2018-09-15T14:51:29Z</time>
      </trkpt>
      <trkpt lat="44.13646" lon="6.91728">
        <ele>1562.62</ele>
        <time>2018-09-15T14:51:41Z</time>
      </trkpt>
      <trkpt lat="44.13632" lon="6.91726">
        <ele>1559.9</ele>
        <time>2018-09-15T14:51:51Z</time>
      </trkpt>
      <trkpt lat="44.13623" lon="6.91708">
        <ele>1556.96</ele>
        <time>2018-09-15T14:52:01Z</time>
      </trkpt>
      <trkpt lat="44.13612" lon="6.9169">
        <ele>1554.46</ele>
        <time>2018-09-15T14:52:12Z</time>
      </trkpt>
      <trkpt lat="44.13612" lon="6.91669">
        <ele>1551.29</ele>
        <time>2018-09-15T14:52:23Z</time>
      </trkpt>
      <trkpt lat="44.13616" lon="6.91643">
        <ele>1547.37</ele>
        <time>2018-09-15T14:52:37Z</time>
      </trkpt>
      <trkpt lat="44.1361" lon="6.91617">
        <ele>1544.33</ele>
        <time>2018-09-15T14:52:51Z</time>
      </trkpt>
      <trkpt lat="44.136" lon="6.91604">
        <ele>1541.37</ele>
        <time>2018-09-15T14:53:03Z</time>
      </trkpt>
      <trkpt lat="44.13589" lon="6.91602">
        <ele>1539.04</ele>
        <time>2018-09-15T14:53:13Z</time>
      </trkpt>
      <trkpt lat="44.1358" lon="6.91593">
        <ele>1534.61</ele>
        <time>2018-09-15T14:53:38Z</time>
      </trkpt>
      <trkpt lat="44.13607" lon="6.91549">
        <ele>1520.04</ele>
        <time>2018-09-15T14:54:48Z</time>
      </trkpt>
      <trkpt lat="44.1361" lon="6.91537">
        <ele>1514.48</ele>
        <time>2018-09-15T14:55:17Z</time>
      </trkpt>
      <trkpt lat="44.13604" lon="6.91519">
        <ele>1511.33</ele>
        <time>2018-09-15T14:55:30Z</time>
      </trkpt>
      <trkpt lat="44.13595" lon="6.91506">
        <ele>1506.61</ele>
        <time>2018-09-15T14:55:44Z</time>
      </trkpt>
      <trkpt lat="44.13592" lon="6.91494">
        <ele>1504.01</ele>
        <time>2018-09-15T14:55:53Z</time>
      </trkpt>
      <trkpt lat="44.13582" lon="6.91472">
        <ele>1499.46</ele>
        <time>2018-09-15T14:56:10Z</time>
      </trkpt>
      <trkpt lat="44.13578" lon="6.91457">
        <ele>1494.93</ele>
        <time>2018-09-15T14:56:26Z</time>
      </trkpt>
      <trkpt lat="44.13588" lon="6.91447">
        <ele>1491.75</ele>
        <time>2018-09-15T14:56:38Z</time>
      </trkpt>
      <trkpt lat="44.13597" lon="6.91443">
        <ele>1490.03</ele>
        <time>2018-09-15T14:56:48Z</time>
      </trkpt>
      <trkpt lat="44.13588" lon="6.91424">
        <ele>1485.97</ele>
        <time>2018-09-15T14:57:03Z</time>
      </trkpt>
      <trkpt lat="44.13584" lon="6.91404">
        <ele>1483.44</ele>
        <time>2018-09-15T14:57:15Z</time>
      </trkpt>
      <trkpt lat="44.13601" lon="6.91393">
        <ele>1479.14</ele>
        <time>2018-09-15T14:57:35Z</time>
      </trkpt>
      <trkpt lat="44.13618" lon="6.914">
        <ele>1473.55</ele>
        <time>2018-09-15T14:57:55Z</time>
      </trkpt>
      <trkpt lat="44.13628" lon="6.91406">
        <ele>1470.23</ele>
        <time>2018-09-15T14:58:08Z</time>
      </trkpt>
      <trkpt lat="44.13639" lon="6.91408">
        <ele>1467.85</ele>
        <time>2018-09-15T14:58:22Z</time>
      </trkpt>
      <trkpt lat="44.13643" lon="6.91425">
        <ele>1464.68</ele>
        <time>2018-09-15T14:58:39Z</time>
      </trkpt>
      <trkpt lat="44.1365" lon="6.91441">
        <ele>1458.62</ele>
        <time>2018-09-15T14:58:58Z</time>
      </trkpt>
      <trkpt lat="44.13659" lon="6.91457">
        <ele>1454.58</ele>
        <time>2018-09-15T14:59:11Z</time>
      </trkpt>
      <trkpt lat="44.13668" lon="6.91449">
        <ele>1451.57</ele>
        <time>2018-09-15T14:59:23Z</time>
      </trkpt>
      <trkpt lat="44.13668" lon="6.91419">
        <ele>1436.08</ele>
        <time>2018-09-15T15:00:24Z</time>
      </trkpt>
      <trkpt lat="44.13681" lon="6.91427">
        <ele>1426.49</ele>
        <time>2018-09-15T15:00:59Z</time>
      </trkpt>
      <trkpt lat="44.13689" lon="6.91439">
        <ele>1423.46</ele>
        <time>2018-09-15T15:01:09Z</time>
      </trkpt>
      <trkpt lat="44.13697" lon="6.91445">
        <ele>1420.43</ele>
        <time>2018-09-15T15:01:21Z</time>
      </trkpt>
      <trkpt lat="44.13702" lon="6.91434">
        <ele>1418.19</ele>
        <time>2018-09-15T15:01:30Z</time>
      </trkpt>
      <trkpt lat="44.13699" lon="6.91416">
        <ele>1414.77</ele>
        <time>2018-09-15T15:01:42Z</time>
      </trkpt>
      <trkpt lat="44.13705" lon="6.91391">
        <ele>1409.59</ele>
        <time>2018-09-15T15:02:02Z</time>
      </trkpt>
      <trkpt lat="44.137" lon="6.91372">
        <ele>1407.25</ele>
        <time>2018-09-15T15:02:13Z</time>
      </trkpt>
      <trkpt lat="44.13699" lon="6.91351">
        <ele>1406</ele>
        <time>2018-09-15T15:02:23Z</time>
      </trkpt>
      <trkpt lat="44.13703" lon="6.91336">
        <ele>1405.13</ele>
        <time>2018-09-15T15:02:29Z</time>
      </trkpt>
      <trkpt lat="44.13693" lon="6.91309">
        <ele>1401.77</ele>
        <time>2018-09-15T15:02:44Z</time>
      </trkpt>
      <trkpt lat="44.13692" lon="6.91293">
        <ele>1400.34</ele>
        <time>2018-09-15T15:02:52Z</time>
      </trkpt>
      <trkpt lat="44.13706" lon="6.91289">
        <ele>1398.56</ele>
        <time>2018-09-15T15:03:02Z</time>
      </trkpt>
      <trkpt lat="44.13712" lon="6.91273">
        <ele>1397.77</ele>
        <time>2018-09-15T15:03:10Z</time>
      </trkpt>
      <trkpt lat="44.13708" lon="6.9126">
        <ele>1398.31</ele>
        <time>2018-09-15T15:03:16Z</time>
      </trkpt>
      <trkpt lat="44.137" lon="6.91236">
        <ele>1396.47</ele>
        <time>2018-09-15T15:03:28Z</time>
      </trkpt>
      <trkpt lat="44.1369" lon="6.91213">
        <ele>1394.99</ele>
        <time>2018-09-15T15:03:39Z</time>
      </trkpt>
      <trkpt lat="44.13683" lon="6.91201">
        <ele>1393.95</ele>
        <time>2018-09-15T15:03:45Z</time>
      </trkpt>
      <trkpt lat="44.13661" lon="6.91184">
        <ele>1391.13</ele>
        <time>2018-09-15T15:03:59Z</time>
      </trkpt>
      <trkpt lat="44.13642" lon="6.91168">
        <ele>1388.92</ele>
        <time>2018-09-15T15:04:11Z</time>
      </trkpt>
      <trkpt lat="44.13615" lon="6.91156">
        <ele>1386.12</ele>
        <time>2018-09-15T15:04:29Z</time>
      </trkpt>
      <trkpt lat="44.13586" lon="6.91145">
        <ele>1383.09</ele>
        <time>2018-09-15T15:04:46Z</time>
      </trkpt>
      <trkpt lat="44.13567" lon="6.91138">
        <ele>1381.59</ele>
        <time>2018-09-15T15:04:57Z</time>
      </trkpt>
      <trkpt lat="44.13551" lon="6.9114">
        <ele>1379.58</ele>
        <time>2018-09-15T15:05:07Z</time>
      </trkpt>
      <trkpt lat="44.13528" lon="6.91137">
        <ele>1377.29</ele>
        <time>2018-09-15T15:05:20Z</time>
      </trkpt>
      <trkpt lat="44.13511" lon="6.91113">
        <ele>1375.11</ele>
        <time>2018-09-15T15:05:32Z</time>
      </trkpt>
      <trkpt lat="44.13509" lon="6.91076">
        <ele>1374.84</ele>
        <time>2018-09-15T15:05:46Z</time>
      </trkpt>
      <trkpt lat="44.13499" lon="6.91055">
        <ele>1374.75</ele>
        <time>2018-09-15T15:05:57Z</time>
      </trkpt>
      <trkpt lat="44.1348" lon="6.91049">
        <ele>1375.09</ele>
        <time>2018-09-15T15:06:09Z</time>
      </trkpt>
      <trkpt lat="44.13464" lon="6.91051">
        <ele>1376.65</ele>
        <time>2018-09-15T15:06:28Z</time>
      </trkpt>
    </trkseg>
  </trk>
</gpx>